OEO487 EDDF-VHHH
Flight info
| Callsign | OEO487 |
|---|---|
| Flight time | N/A |
| Altitude | 33000 |
| Route | SULUS7S/18 SULUS Z650 VEMUT DCT BUDEX DCT TEKNO DCT TEGRI DCT LUGEB DCT UDROS UM859 KARDE UL851 TBN UM11 REBLO M11 LUSAL M747 SULEL/N0478F350 N449 DUKAN B449 RANAH L750 MERUN G452 PAVRU/N0478F370 G452 LKN A201 LSO A599 LINSO/K0893S1130 A599 POU R473 SIERA |
| Aircraft | A346/H-SDE2E3FGHIJ3J4J5M1RWXY/LB1D1 |
Departure
| Time | 2026-04-17 21:44 |
|---|---|
| Airport | Frankfurt Main Airport (EDDF) |
Arrival
| Time | N/A |
|---|---|
| Airport | Hong Kong International Airport (VHHH) |
| Time | Latitude | Longitude | Altitude | Speed | Heading |
|---|---|---|---|---|---|
| 2026-04-17 20:50 | 50.04763 | 8.57752 | 364 ft | 0 kts | 270° |
| 2026-04-17 21:26 | 50.04763 | 8.57753 | 364 ft | 2 kts | 270° |
| 2026-04-17 21:26 | 50.04762 | 8.57792 | 366 ft | 4 kts | 270° |
| 2026-04-17 21:26 | 50.04763 | 8.57834 | 369 ft | 4 kts | 265° |
| 2026-04-17 21:27 | 50.04766 | 8.57875 | 371 ft | 4 kts | 261° |
| 2026-04-17 21:27 | 50.04771 | 8.57916 | 372 ft | 4 kts | 256° |
| 2026-04-17 21:27 | 50.04778 | 8.57957 | 367 ft | 4 kts | 252° |
| 2026-04-17 21:27 | 50.04787 | 8.57996 | 368 ft | 4 kts | 249° |
| 2026-04-17 21:28 | 50.04797 | 8.58035 | 373 ft | 4 kts | 247° |
| 2026-04-17 21:28 | 50.04807 | 8.58073 | 370 ft | 3 kts | 249° |
| 2026-04-17 21:28 | 50.04808 | 8.58077 | 370 ft | 0 kts | 250° |
| 2026-04-17 21:31 | 50.04806 | 8.58069 | 366 ft | 4 kts | 250° |
| 2026-04-17 21:32 | 50.04782 | 8.58003 | 370 ft | 10 kts | 231° |
| 2026-04-17 21:32 | 50.04730 | 8.57918 | 370 ft | 11 kts | 226° |
| 2026-04-17 21:32 | 50.04687 | 8.57811 | 373 ft | 12 kts | 248° |
| 2026-04-17 21:32 | 50.04655 | 8.57683 | 371 ft | 13 kts | 250° |
| 2026-04-17 21:33 | 50.04622 | 8.57542 | 367 ft | 14 kts | 250° |
| 2026-04-17 21:33 | 50.04586 | 8.57391 | 371 ft | 15 kts | 249° |
| 2026-04-17 21:33 | 50.04549 | 8.57237 | 369 ft | 15 kts | 250° |
| 2026-04-17 21:33 | 50.04521 | 8.57118 | 366 ft | 11 kts | 250° |
| 2026-04-17 21:34 | 50.04514 | 8.57089 | 367 ft | 0 kts | 250° |
| 2026-04-17 21:34 | 50.04512 | 8.57079 | 370 ft | 5 kts | 250° |
| 2026-04-17 21:34 | 50.04424 | 8.56712 | 366 ft | 23 kts | 249° |
| 2026-04-17 21:35 | 50.04368 | 8.56477 | 368 ft | 21 kts | 250° |
| 2026-04-17 21:35 | 50.04339 | 8.56357 | 367 ft | 18 kts | 249° |
| 2026-04-17 21:35 | 50.04273 | 8.56082 | 364 ft | 30 kts | 250° |
| 2026-04-17 21:35 | 50.04202 | 8.55781 | 362 ft | 30 kts | 249° |
| 2026-04-17 21:36 | 50.04130 | 8.55480 | 361 ft | 29 kts | 249° |
| 2026-04-17 21:36 | 50.04060 | 8.55187 | 363 ft | 28 kts | 249° |
| 2026-04-17 21:36 | 50.03990 | 8.54899 | 362 ft | 28 kts | 249° |
| 2026-04-17 21:36 | 50.03924 | 8.54617 | 362 ft | 27 kts | 250° |
| 2026-04-17 21:37 | 50.03871 | 8.54406 | 361 ft | 14 kts | 244° |
| 2026-04-17 21:37 | 50.03852 | 8.54354 | 362 ft | 6 kts | 236° |
| 2026-04-17 21:37 | 50.03818 | 8.54278 | 359 ft | 10 kts | 237° |
| 2026-04-17 21:37 | 50.03789 | 8.54176 | 360 ft | 11 kts | 249° |
| 2026-04-17 21:38 | 50.03753 | 8.54026 | 360 ft | 18 kts | 250° |
| 2026-04-17 21:38 | 50.03710 | 8.53845 | 356 ft | 18 kts | 249° |
| 2026-04-17 21:38 | 50.03664 | 8.53657 | 354 ft | 19 kts | 249° |
| 2026-04-17 21:38 | 50.03616 | 8.53467 | 355 ft | 19 kts | 249° |
| 2026-04-17 21:39 | 50.03570 | 8.53274 | 347 ft | 19 kts | 250° |
| 2026-04-17 21:39 | 50.03526 | 8.53090 | 353 ft | 17 kts | 250° |
| 2026-04-17 21:39 | 50.03483 | 8.52915 | 350 ft | 15 kts | 248° |
| 2026-04-17 21:39 | 50.03450 | 8.52799 | 347 ft | 13 kts | 248° |
| 2026-04-17 21:40 | 50.03441 | 8.52759 | 351 ft | 0 kts | 249° |
| 2026-04-17 21:40 | 50.03440 | 8.52757 | 354 ft | 1 kts | 249° |
| 2026-04-17 21:41 | 50.03429 | 8.52713 | 351 ft | 8 kts | 249° |
| 2026-04-17 21:41 | 50.03397 | 8.52631 | 352 ft | 10 kts | 223° |
| 2026-04-17 21:41 | 50.03332 | 8.52596 | 347 ft | 11 kts | 184° |
| 2026-04-17 21:41 | 50.03303 | 8.52594 | 353 ft | 0 kts | 180° |
| 2026-04-17 21:43 | 50.03302 | 8.52594 | 353 ft | 2 kts | 180° |
| 2026-04-17 21:43 | 50.03141 | 8.52595 | 350 ft | 50 kts | 179° |
| 2026-04-17 21:43 | 50.02609 | 8.52601 | 348 ft | 103 kts | 179° |
| 2026-04-17 21:44 | 50.01726 | 8.52608 | 350 ft | 149 kts | 180° |
| 2026-04-17 21:44 | 50.00549 | 8.52617 | 348 ft | 187 kts | 179° |
| 2026-04-17 21:44 | 49.99209 | 8.52627 | 672 ft | 194 kts | 180° |
| 2026-04-17 21:44 | 49.97846 | 8.52637 | 1148 ft | 197 kts | 179° |
| 2026-04-17 21:45 | 49.96518 | 8.53092 | 1635 ft | 198 kts | 147° |
| 2026-04-17 21:45 | 49.95625 | 8.54705 | 1920 ft | 203 kts | 115° |
| 2026-04-17 21:45 | 49.95007 | 8.56743 | 2204 ft | 213 kts | 115° |
| 2026-04-17 21:45 | 49.94365 | 8.58865 | 2534 ft | 221 kts | 112° |
| 2026-04-17 21:46 | 49.93982 | 8.61208 | 2866 ft | 230 kts | 96° |
| 2026-04-17 21:46 | 49.93892 | 8.63772 | 3132 ft | 244 kts | 92° |
| 2026-04-17 21:46 | 49.93855 | 8.66471 | 3461 ft | 255 kts | 90° |
| 2026-04-17 21:46 | 49.93710 | 8.69261 | 3848 ft | 263 kts | 108° |
| 2026-04-17 21:47 | 49.92861 | 8.71781 | 4326 ft | 267 kts | 132° |
| 2026-04-17 21:47 | 49.91557 | 8.73830 | 4953 ft | 266 kts | 137° |
| 2026-04-17 21:47 | 49.90209 | 8.75798 | 5583 ft | 266 kts | 131° |
| 2026-04-17 21:47 | 49.89324 | 8.78319 | 6119 ft | 271 kts | 103° |
| 2026-04-17 21:48 | 49.89366 | 8.81239 | 6636 ft | 277 kts | 76° |
| 2026-04-17 21:48 | 49.89899 | 8.84171 | 7011 ft | 288 kts | 75° |
| 2026-04-17 21:48 | 49.90418 | 8.87173 | 7467 ft | 294 kts | 77° |
| 2026-04-17 21:48 | 49.90928 | 8.90318 | 8035 ft | 298 kts | 77° |
| 2026-04-17 21:49 | 49.91440 | 8.93404 | 8623 ft | 300 kts | 76° |
| 2026-04-17 21:49 | 49.91923 | 8.96564 | 9207 ft | 301 kts | 84° |
| 2026-04-17 21:49 | 49.92156 | 8.99809 | 9819 ft | 303 kts | 85° |
| 2026-04-17 21:49 | 49.92386 | 9.03052 | 10409 ft | 303 kts | 85° |
| 2026-04-17 21:50 | 49.92631 | 9.06335 | 10821 ft | 311 kts | 84° |
| 2026-04-17 21:50 | 49.92904 | 9.09729 | 11081 ft | 322 kts | 83° |
| 2026-04-17 21:50 | 49.93207 | 9.13243 | 11385 ft | 332 kts | 83° |
| 2026-04-17 21:50 | 49.93541 | 9.16850 | 11710 ft | 342 kts | 82° |
| 2026-04-17 21:51 | 49.93908 | 9.20579 | 11944 ft | 355 kts | 82° |
| 2026-04-17 21:51 | 49.94289 | 9.24442 | 12175 ft | 368 kts | 82° |
| 2026-04-17 21:51 | 49.94679 | 9.28443 | 12406 ft | 380 kts | 82° |
| 2026-04-17 21:51 | 49.95079 | 9.32580 | 12669 ft | 391 kts | 82° |
| 2026-04-17 21:52 | 49.95482 | 9.36796 | 13136 ft | 396 kts | 82° |
| 2026-04-17 21:52 | 49.95885 | 9.41050 | 13671 ft | 399 kts | 82° |
| 2026-04-17 21:52 | 49.96289 | 9.45344 | 14151 ft | 404 kts | 82° |
| 2026-04-17 21:52 | 49.96697 | 9.49689 | 14580 ft | 408 kts | 82° |
| 2026-04-17 21:53 | 49.97106 | 9.54069 | 15070 ft | 410 kts | 81° |
| 2026-04-17 21:53 | 49.97517 | 9.58483 | 15550 ft | 413 kts | 81° |
| 2026-04-17 21:53 | 49.97927 | 9.62927 | 16034 ft | 415 kts | 81° |
| 2026-04-17 21:53 | 49.98337 | 9.67383 | 16545 ft | 417 kts | 81° |
| 2026-04-17 21:54 | 49.98748 | 9.71868 | 17025 ft | 420 kts | 81° |
| 2026-04-17 21:54 | 49.99160 | 9.76372 | 17492 ft | 423 kts | 81° |
| 2026-04-17 21:54 | 49.99574 | 9.80920 | 17947 ft | 425 kts | 81° |
| 2026-04-17 21:54 | 49.99983 | 9.85436 | 18403 ft | 428 kts | 81° |
| 2026-04-17 21:55 | 50.00398 | 9.90047 | 18804 ft | 431 kts | 81° |
| 2026-04-17 21:55 | 50.00813 | 9.94678 | 19195 ft | 434 kts | 81° |
| 2026-04-17 21:55 | 50.01229 | 9.99339 | 19591 ft | 436 kts | 81° |
| 2026-04-17 21:55 | 50.01644 | 10.04017 | 19975 ft | 439 kts | 81° |
| 2026-04-17 21:56 | 50.02061 | 10.08735 | 20364 ft | 441 kts | 81° |
| 2026-04-17 21:56 | 50.02477 | 10.13483 | 20771 ft | 443 kts | 81° |
| 2026-04-17 21:56 | 50.02895 | 10.18254 | 21171 ft | 445 kts | 81° |
| 2026-04-17 21:56 | 50.03315 | 10.23045 | 21535 ft | 448 kts | 81° |
| 2026-04-17 21:57 | 50.03736 | 10.27875 | 21895 ft | 451 kts | 81° |
| 2026-04-17 21:57 | 50.04157 | 10.32726 | 22262 ft | 453 kts | 81° |
| 2026-04-17 21:57 | 50.04578 | 10.37609 | 22615 ft | 456 kts | 81° |
| 2026-04-17 21:57 | 50.05000 | 10.42522 | 22972 ft | 459 kts | 81° |
| 2026-04-17 21:58 | 50.05414 | 10.47458 | 23331 ft | 461 kts | 81° |
| 2026-04-17 21:58 | 50.05827 | 10.52426 | 23684 ft | 464 kts | 81° |
| 2026-04-17 21:58 | 50.06242 | 10.57431 | 23987 ft | 466 kts | 81° |
| 2026-04-17 21:58 | 50.06658 | 10.62464 | 24277 ft | 469 kts | 81° |
| 2026-04-17 21:59 | 50.07034 | 10.67521 | 24577 ft | 472 kts | 84° |
| 2026-04-17 21:59 | 50.07007 | 10.72657 | 24856 ft | 476 kts | 94° |
| 2026-04-17 21:59 | 50.06494 | 10.77703 | 25142 ft | 479 kts | 102° |
| 2026-04-17 21:59 | 50.05555 | 10.82694 | 25446 ft | 481 kts | 107° |
| 2026-04-17 22:00 | 50.04491 | 10.87656 | 25738 ft | 483 kts | 108° |
| 2026-04-17 22:00 | 50.03405 | 10.92620 | 26007 ft | 486 kts | 107° |
| 2026-04-17 22:00 | 50.02319 | 10.97612 | 26281 ft | 488 kts | 107° |
| 2026-04-17 22:00 | 50.01242 | 11.02610 | 26563 ft | 489 kts | 107° |
| 2026-04-17 22:01 | 50.00161 | 11.07655 | 26818 ft | 492 kts | 107° |
| 2026-04-17 22:01 | 49.99086 | 11.12694 | 27086 ft | 493 kts | 107° |
| 2026-04-17 22:01 | 49.97999 | 11.17780 | 27357 ft | 495 kts | 107° |
| 2026-04-17 22:01 | 49.96909 | 11.22871 | 27608 ft | 497 kts | 106° |
| 2026-04-17 22:02 | 49.95821 | 11.27988 | 27873 ft | 499 kts | 106° |
| 2026-04-17 22:02 | 49.94732 | 11.33128 | 28131 ft | 501 kts | 106° |
| 2026-04-17 22:02 | 49.93639 | 11.38280 | 28390 ft | 503 kts | 106° |
| 2026-04-17 22:02 | 49.92611 | 11.43466 | 28744 ft | 501 kts | 104° |
| 2026-04-17 22:03 | 49.91650 | 11.48669 | 29156 ft | 500 kts | 103° |
| 2026-04-17 22:03 | 49.90711 | 11.53793 | 29545 ft | 498 kts | 103° |
| 2026-04-17 22:03 | 49.89763 | 11.58962 | 29894 ft | 497 kts | 103° |
| 2026-04-17 22:03 | 49.88843 | 11.64157 | 30246 ft | 496 kts | 101° |
| 2026-04-17 22:04 | 49.88089 | 11.69371 | 30535 ft | 494 kts | 98° |
| 2026-04-17 22:04 | 49.87520 | 11.74625 | 30821 ft | 492 kts | 95° |
| 2026-04-17 22:04 | 49.87056 | 11.79881 | 31119 ft | 491 kts | 94° |
| 2026-04-17 22:04 | 49.86605 | 11.85132 | 31412 ft | 490 kts | 94° |
| 2026-04-17 22:05 | 49.86305 | 11.88601 | 31600 ft | 490 kts | 94° |
| 2026-04-17 22:05 | 49.85843 | 11.93841 | 31830 ft | 490 kts | 94° |
| 2026-04-17 22:05 | 49.85376 | 11.99087 | 32036 ft | 491 kts | 94° |
| 2026-04-17 22:05 | 49.84906 | 12.04328 | 32251 ft | 492 kts | 94° |
| 2026-04-17 22:06 | 49.84432 | 12.09588 | 32469 ft | 492 kts | 94° |
| 2026-04-17 22:06 | 49.83798 | 12.16563 | 32765 ft | 493 kts | 94° |
| 2026-04-17 22:06 | 49.83473 | 12.20110 | 32913 ft | 493 kts | 94° |
| 2026-04-17 22:06 | 49.82988 | 12.25383 | 33122 ft | 493 kts | 94° |
| 2026-04-17 22:07 | 49.82493 | 12.30651 | 33207 ft | 495 kts | 95° |
| 2026-04-17 22:07 | 49.80890 | 12.41016 | 33223 ft | 500 kts | 104° |
| 2026-04-17 22:08 | 49.78258 | 12.51139 | 33210 ft | 506 kts | 113° |
| 2026-04-17 22:08 | 49.74654 | 12.60599 | 33228 ft | 510 kts | 121° |
| 2026-04-17 22:09 | 49.70621 | 12.69560 | 33213 ft | 510 kts | 122° |
| 2026-04-17 22:09 | 49.66551 | 12.78552 | 33228 ft | 510 kts | 121° |
| 2026-04-17 22:10 | 49.62490 | 12.87554 | 33216 ft | 510 kts | 121° |
| 2026-04-17 22:10 | 49.58430 | 12.96546 | 33217 ft | 510 kts | 121° |
| 2026-04-17 22:11 | 49.54368 | 13.05516 | 33220 ft | 510 kts | 121° |
| 2026-04-17 22:11 | 49.50292 | 13.14483 | 33237 ft | 510 kts | 122° |
| 2026-04-17 22:12 | 49.46207 | 13.23441 | 33232 ft | 511 kts | 122° |
| 2026-04-17 22:12 | 49.42119 | 13.32376 | 33219 ft | 510 kts | 122° |
| 2026-04-17 22:13 | 49.38056 | 13.41231 | 33233 ft | 510 kts | 122° |
| 2026-04-17 22:13 | 49.33954 | 13.50128 | 33235 ft | 511 kts | 122° |
| 2026-04-17 22:14 | 49.29835 | 13.59040 | 33232 ft | 512 kts | 122° |
| 2026-04-17 22:14 | 49.25704 | 13.67953 | 33228 ft | 512 kts | 122° |
| 2026-04-17 22:15 | 49.21571 | 13.76838 | 33227 ft | 512 kts | 122° |
| 2026-04-17 22:15 | 49.17418 | 13.85733 | 33254 ft | 512 kts | 122° |
| 2026-04-17 22:16 | 49.13258 | 13.94608 | 33231 ft | 512 kts | 122° |
| 2026-04-17 22:16 | 49.09104 | 14.03456 | 33223 ft | 512 kts | 122° |
| 2026-04-17 22:17 | 49.04935 | 14.12299 | 33233 ft | 512 kts | 122° |
| 2026-04-17 22:17 | 49.00761 | 14.21120 | 33262 ft | 512 kts | 122° |
| 2026-04-17 22:18 | 48.96581 | 14.29922 | 33237 ft | 513 kts | 122° |
| 2026-04-17 22:18 | 48.92661 | 14.38887 | 33226 ft | 510 kts | 117° |
| 2026-04-17 22:19 | 48.88913 | 14.48092 | 33229 ft | 510 kts | 117° |
| 2026-04-17 22:19 | 48.85164 | 14.57264 | 33225 ft | 510 kts | 117° |
| 2026-04-17 22:20 | 48.81400 | 14.66417 | 33226 ft | 510 kts | 117° |
| 2026-04-17 22:20 | 48.77630 | 14.75561 | 33214 ft | 510 kts | 117° |
| 2026-04-17 22:21 | 48.73878 | 14.84623 | 33223 ft | 510 kts | 117° |
| 2026-04-17 22:21 | 48.70099 | 14.93721 | 33225 ft | 510 kts | 118° |
| 2026-04-17 22:22 | 48.66312 | 15.02799 | 33233 ft | 510 kts | 117° |
| 2026-04-17 22:22 | 48.62516 | 15.11877 | 33226 ft | 510 kts | 117° |
| 2026-04-17 22:23 | 48.58712 | 15.20943 | 33208 ft | 510 kts | 118° |
| 2026-04-17 22:23 | 48.54895 | 15.30007 | 33224 ft | 510 kts | 118° |
| 2026-04-17 22:24 | 48.51072 | 15.39046 | 33224 ft | 511 kts | 117° |
| 2026-04-17 22:24 | 48.47242 | 15.48086 | 33187 ft | 511 kts | 118° |
| 2026-04-17 22:25 | 48.43406 | 15.57114 | 33207 ft | 511 kts | 118° |
| 2026-04-17 22:25 | 48.39584 | 15.66066 | 33206 ft | 511 kts | 118° |
| 2026-04-17 22:26 | 48.35730 | 15.75053 | 33221 ft | 511 kts | 118° |
| 2026-04-17 22:26 | 48.31867 | 15.84051 | 33206 ft | 512 kts | 118° |
| 2026-04-17 22:27 | 48.27993 | 15.93041 | 33204 ft | 512 kts | 118° |
| 2026-04-17 22:27 | 48.24115 | 16.02011 | 33203 ft | 512 kts | 118° |
| 2026-04-17 22:28 | 48.20220 | 16.10980 | 33212 ft | 514 kts | 118° |
| 2026-04-17 22:28 | 48.16310 | 16.19965 | 33203 ft | 514 kts | 118° |
| 2026-04-17 22:29 | 48.12397 | 16.28927 | 33196 ft | 513 kts | 118° |
| 2026-04-17 22:29 | 48.08478 | 16.37869 | 33214 ft | 513 kts | 118° |
| 2026-04-17 22:30 | 48.04546 | 16.46804 | 33213 ft | 515 kts | 118° |
| 2026-04-17 22:30 | 48.00601 | 16.55749 | 33211 ft | 515 kts | 118° |
| 2026-04-17 22:31 | 47.96652 | 16.64673 | 33212 ft | 515 kts | 118° |
| 2026-04-17 22:31 | 47.92688 | 16.73600 | 33204 ft | 515 kts | 118° |
| 2026-04-17 22:32 | 47.88743 | 16.82453 | 33196 ft | 515 kts | 118° |
| 2026-04-17 22:32 | 47.84770 | 16.91339 | 33190 ft | 515 kts | 118° |
| 2026-04-17 22:33 | 47.80790 | 17.00214 | 33172 ft | 515 kts | 118° |
| 2026-04-17 22:33 | 47.76811 | 17.09057 | 33231 ft | 514 kts | 118° |
| 2026-04-17 22:34 | 47.72805 | 17.17929 | 33190 ft | 517 kts | 118° |
| 2026-04-17 22:34 | 47.68767 | 17.26847 | 33183 ft | 518 kts | 118° |
| 2026-04-17 22:35 | 47.64739 | 17.35710 | 33181 ft | 518 kts | 118° |
| 2026-04-17 22:35 | 47.61012 | 17.44805 | 33210 ft | 512 kts | 112° |
| 2026-04-17 22:36 | 47.57767 | 17.54205 | 33183 ft | 512 kts | 111° |
| 2026-04-17 22:36 | 47.54552 | 17.63575 | 33555 ft | 512 kts | 111° |
| 2026-04-17 22:36 | 47.52930 | 17.68268 | 33891 ft | 510 kts | 111° |
| 2026-04-17 22:37 | 47.51309 | 17.72942 | 34178 ft | 508 kts | 111° |
| 2026-04-17 22:37 | 47.49695 | 17.77592 | 34396 ft | 508 kts | 111° |
| 2026-04-17 22:37 | 47.48082 | 17.82236 | 34593 ft | 507 kts | 111° |
| 2026-04-17 22:37 | 47.46464 | 17.86883 | 34786 ft | 507 kts | 112° |
| 2026-04-17 22:38 | 47.44848 | 17.91506 | 34972 ft | 506 kts | 112° |
| 2026-04-17 22:38 | 47.43230 | 17.96128 | 35129 ft | 506 kts | 112° |
| 2026-04-17 22:38 | 47.41607 | 18.00753 | 35159 ft | 506 kts | 112° |
| 2026-04-17 22:39 | 47.38353 | 18.09997 | 35169 ft | 506 kts | 112° |
| 2026-04-17 22:39 | 47.33476 | 18.23813 | 35167 ft | 506 kts | 113° |
| 2026-04-17 22:40 | 47.30202 | 18.33032 | 35161 ft | 506 kts | 113° |
| 2026-04-17 22:40 | 47.26948 | 18.42167 | 35158 ft | 506 kts | 113° |
| 2026-04-17 22:41 | 47.23670 | 18.51338 | 35174 ft | 506 kts | 113° |
| 2026-04-17 22:41 | 47.20384 | 18.60511 | 35153 ft | 505 kts | 113° |
| 2026-04-17 22:42 | 47.17092 | 18.69654 | 35147 ft | 506 kts | 114° |
| 2026-04-17 22:42 | 47.13789 | 18.78801 | 35144 ft | 506 kts | 114° |
| 2026-04-17 22:43 | 47.10484 | 18.87925 | 35160 ft | 505 kts | 114° |
| 2026-04-17 22:43 | 47.07181 | 18.97013 | 35142 ft | 504 kts | 114° |
| 2026-04-17 22:44 | 47.03873 | 19.06075 | 35130 ft | 504 kts | 114° |
| 2026-04-17 22:44 | 47.00569 | 19.15104 | 35136 ft | 506 kts | 114° |
| 2026-04-17 22:45 | 46.97215 | 19.24248 | 35146 ft | 505 kts | 114° |
| 2026-04-17 22:45 | 46.93882 | 19.33291 | 35142 ft | 504 kts | 115° |
| 2026-04-17 22:46 | 46.90562 | 19.42264 | 35127 ft | 504 kts | 115° |
| 2026-04-17 22:46 | 46.87211 | 19.51294 | 35135 ft | 504 kts | 115° |
| 2026-04-17 22:47 | 46.83864 | 19.60293 | 35138 ft | 503 kts | 115° |
| 2026-04-17 22:47 | 46.80509 | 19.69273 | 35154 ft | 503 kts | 115° |
| 2026-04-17 22:48 | 46.77150 | 19.78233 | 35152 ft | 503 kts | 115° |
| 2026-04-17 22:48 | 46.73783 | 19.87188 | 35145 ft | 503 kts | 115° |
| 2026-04-17 22:49 | 46.70415 | 19.96122 | 35145 ft | 502 kts | 116° |
| 2026-04-17 22:49 | 46.67044 | 20.05025 | 35131 ft | 502 kts | 116° |
| 2026-04-17 22:50 | 46.63664 | 20.13923 | 35104 ft | 502 kts | 116° |
| 2026-04-17 22:50 | 46.60275 | 20.22817 | 35117 ft | 502 kts | 116° |
| 2026-04-17 22:51 | 46.56880 | 20.31700 | 35117 ft | 502 kts | 116° |
| 2026-04-17 22:51 | 46.53497 | 20.40520 | 35118 ft | 502 kts | 116° |
| 2026-04-17 22:52 | 46.50087 | 20.49385 | 35120 ft | 502 kts | 116° |
| 2026-04-17 22:52 | 46.46671 | 20.58239 | 35126 ft | 502 kts | 116° |
| 2026-04-17 22:53 | 46.43829 | 20.65583 | 35120 ft | 501 kts | 116° |
| 2026-04-17 22:53 | 46.40402 | 20.74401 | 35114 ft | 501 kts | 116° |
| 2026-04-17 22:54 | 46.36963 | 20.83225 | 35112 ft | 501 kts | 117° |
| 2026-04-17 22:54 | 46.33525 | 20.92025 | 35120 ft | 501 kts | 117° |
| 2026-04-17 22:55 | 46.30083 | 21.00799 | 35108 ft | 501 kts | 117° |
| 2026-04-17 22:55 | 46.26684 | 21.09604 | 35104 ft | 500 kts | 114° |
| 2026-04-17 22:56 | 46.23803 | 21.18737 | 35103 ft | 498 kts | 110° |
| 2026-04-17 22:56 | 46.21081 | 21.27963 | 35104 ft | 499 kts | 110° |
| 2026-04-17 22:57 | 46.18342 | 21.37179 | 35097 ft | 500 kts | 110° |
| 2026-04-17 22:57 | 46.15604 | 21.46341 | 35103 ft | 500 kts | 110° |
| 2026-04-17 22:58 | 46.12838 | 21.55553 | 35103 ft | 500 kts | 111° |
| 2026-04-17 22:58 | 46.10072 | 21.64751 | 35105 ft | 499 kts | 111° |
| 2026-04-17 22:59 | 46.07295 | 21.73921 | 35101 ft | 499 kts | 111° |
| 2026-04-17 22:59 | 46.04509 | 21.83089 | 35101 ft | 499 kts | 111° |
| 2026-04-17 23:00 | 46.01719 | 21.92245 | 35109 ft | 499 kts | 112° |
| 2026-04-17 23:00 | 45.98932 | 22.01367 | 35108 ft | 498 kts | 112° |
| 2026-04-17 23:01 | 45.96133 | 22.10483 | 35106 ft | 498 kts | 112° |
| 2026-04-17 23:01 | 45.93326 | 22.19593 | 35106 ft | 498 kts | 112° |
| 2026-04-17 23:02 | 45.90532 | 22.28637 | 35108 ft | 498 kts | 112° |
| 2026-04-17 23:02 | 45.87709 | 22.37738 | 35106 ft | 499 kts | 112° |
| 2026-04-17 23:03 | 45.84875 | 22.46837 | 35106 ft | 499 kts | 112° |
| 2026-04-17 23:03 | 45.82036 | 22.55925 | 35096 ft | 499 kts | 112° |
| 2026-04-17 23:04 | 45.79188 | 22.65015 | 35098 ft | 500 kts | 113° |
| 2026-04-17 23:04 | 45.76324 | 22.74113 | 35113 ft | 500 kts | 113° |
| 2026-04-17 23:05 | 45.73455 | 22.83195 | 35109 ft | 500 kts | 113° |
| 2026-04-17 23:05 | 45.70581 | 22.92264 | 35108 ft | 500 kts | 113° |
| 2026-04-17 23:06 | 45.67709 | 23.01308 | 35096 ft | 500 kts | 113° |
| 2026-04-17 23:06 | 45.64820 | 23.10354 | 35102 ft | 499 kts | 114° |
| 2026-04-17 23:07 | 45.61919 | 23.19407 | 35098 ft | 499 kts | 114° |
| 2026-04-17 23:07 | 45.59021 | 23.28430 | 35115 ft | 499 kts | 114° |
| 2026-04-17 23:08 | 45.56140 | 23.37372 | 35102 ft | 498 kts | 114° |
| 2026-04-17 23:08 | 45.53207 | 23.46427 | 35102 ft | 498 kts | 114° |
| 2026-04-17 23:09 | 45.50307 | 23.55352 | 35088 ft | 498 kts | 114° |
| 2026-04-17 23:09 | 45.47384 | 23.64319 | 35092 ft | 498 kts | 114° |
| 2026-04-17 23:10 | 45.44449 | 23.73295 | 35085 ft | 499 kts | 114° |
| 2026-04-17 23:10 | 45.41511 | 23.82250 | 35087 ft | 498 kts | 115° |
| 2026-04-17 23:11 | 45.38569 | 23.91187 | 35102 ft | 498 kts | 115° |
| 2026-04-17 23:11 | 45.35618 | 24.00125 | 35076 ft | 500 kts | 115° |
| 2026-04-17 23:12 | 45.32643 | 24.09100 | 35069 ft | 500 kts | 115° |
| 2026-04-17 23:12 | 45.29661 | 24.18062 | 35065 ft | 501 kts | 115° |
| 2026-04-17 23:13 | 45.26676 | 24.27009 | 35063 ft | 501 kts | 115° |
| 2026-04-17 23:13 | 45.23700 | 24.35900 | 35063 ft | 501 kts | 115° |
| 2026-04-17 23:14 | 45.20702 | 24.44818 | 35055 ft | 501 kts | 115° |
| 2026-04-17 23:14 | 45.17689 | 24.53754 | 35052 ft | 501 kts | 116° |
| 2026-04-17 23:15 | 45.14682 | 24.62655 | 35045 ft | 500 kts | 116° |
| 2026-04-17 23:15 | 45.11662 | 24.71553 | 35056 ft | 500 kts | 116° |
| 2026-04-17 23:16 | 45.08636 | 24.80430 | 35051 ft | 500 kts | 116° |
| 2026-04-17 23:16 | 45.05602 | 24.89308 | 35033 ft | 500 kts | 116° |
| 2026-04-17 23:17 | 45.02558 | 24.98199 | 35036 ft | 501 kts | 117° |
| 2026-04-17 23:17 | 44.99517 | 25.07034 | 35040 ft | 501 kts | 117° |
| 2026-04-17 23:18 | 44.96456 | 25.15899 | 35031 ft | 501 kts | 117° |
| 2026-04-17 23:18 | 44.93392 | 25.24754 | 35034 ft | 501 kts | 117° |
| 2026-04-17 23:19 | 44.90314 | 25.33622 | 35028 ft | 502 kts | 117° |
| 2026-04-17 23:19 | 44.87224 | 25.42478 | 35034 ft | 502 kts | 117° |
| 2026-04-17 23:20 | 44.84132 | 25.51318 | 35032 ft | 502 kts | 118° |
| 2026-04-17 23:20 | 44.81054 | 25.60102 | 35027 ft | 502 kts | 118° |
| 2026-04-17 23:21 | 44.77945 | 25.68931 | 35030 ft | 502 kts | 118° |
| 2026-04-17 23:21 | 44.74834 | 25.77737 | 35034 ft | 502 kts | 118° |
| 2026-04-17 23:22 | 44.71715 | 25.86545 | 35023 ft | 502 kts | 118° |
| 2026-04-17 23:22 | 44.68591 | 25.95341 | 35046 ft | 501 kts | 119° |
| 2026-04-17 23:23 | 44.65470 | 26.04088 | 35046 ft | 501 kts | 119° |
| 2026-04-17 23:23 | 44.62332 | 26.12855 | 35047 ft | 501 kts | 119° |
| 2026-04-17 23:24 | 44.59203 | 26.21591 | 35043 ft | 499 kts | 120° |
| 2026-04-17 23:24 | 44.56073 | 26.30279 | 35031 ft | 498 kts | 120° |
| 2026-04-17 23:25 | 44.52959 | 26.38894 | 35029 ft | 498 kts | 120° |
| 2026-04-17 23:25 | 44.49817 | 26.47564 | 35016 ft | 498 kts | 120° |
| 2026-04-17 23:26 | 44.46673 | 26.56220 | 35025 ft | 498 kts | 120° |
| 2026-04-17 23:26 | 44.43521 | 26.64859 | 35023 ft | 498 kts | 120° |
| 2026-04-17 23:27 | 44.40359 | 26.73503 | 35022 ft | 498 kts | 120° |
| 2026-04-17 23:27 | 44.37192 | 26.82133 | 35018 ft | 498 kts | 121° |
| 2026-04-17 23:28 | 44.34020 | 26.90752 | 35017 ft | 498 kts | 121° |
| 2026-04-17 23:28 | 44.30843 | 26.99359 | 35014 ft | 498 kts | 121° |
| 2026-04-17 23:29 | 44.27656 | 27.07966 | 35000 ft | 498 kts | 121° |
| 2026-04-17 23:29 | 44.24472 | 27.16545 | 35005 ft | 497 kts | 121° |
| 2026-04-17 23:30 | 44.21280 | 27.25104 | 35006 ft | 497 kts | 121° |
| 2026-04-17 23:30 | 44.18084 | 27.33653 | 35010 ft | 497 kts | 121° |
| 2026-04-17 23:31 | 44.14905 | 27.42144 | 35008 ft | 496 kts | 121° |
| 2026-04-17 23:31 | 44.11702 | 27.50661 | 35008 ft | 495 kts | 122° |
| 2026-04-17 23:32 | 44.08496 | 27.59152 | 35007 ft | 495 kts | 122° |
| 2026-04-17 23:32 | 44.05288 | 27.67628 | 34988 ft | 495 kts | 122° |
| 2026-04-17 23:33 | 44.02082 | 27.76085 | 35002 ft | 493 kts | 122° |
| 2026-04-17 23:33 | 43.98871 | 27.84512 | 35001 ft | 493 kts | 122° |
| 2026-04-17 23:34 | 43.95654 | 27.92934 | 34996 ft | 493 kts | 122° |
| 2026-04-17 23:34 | 43.92435 | 28.01343 | 34985 ft | 492 kts | 122° |
| 2026-04-17 23:35 | 43.89237 | 28.09667 | 34991 ft | 492 kts | 123° |
| 2026-04-17 23:35 | 43.86007 | 28.18048 | 34993 ft | 492 kts | 123° |
| 2026-04-17 23:36 | 43.82771 | 28.26416 | 34989 ft | 492 kts | 123° |
| 2026-04-17 23:36 | 43.79541 | 28.34754 | 34983 ft | 490 kts | 123° |
| 2026-04-17 23:37 | 43.76307 | 28.43065 | 34984 ft | 490 kts | 123° |
| 2026-04-17 23:37 | 43.73004 | 28.51308 | 34985 ft | 488 kts | 126° |
| 2026-04-17 23:38 | 43.69379 | 28.59237 | 34973 ft | 486 kts | 127° |
| 2026-04-17 23:38 | 43.65740 | 28.67118 | 34983 ft | 485 kts | 127° |
| 2026-04-17 23:39 | 43.62100 | 28.74986 | 34982 ft | 485 kts | 127° |
| 2026-04-17 23:39 | 43.58475 | 28.82800 | 34980 ft | 485 kts | 127° |
| 2026-04-17 23:40 | 43.54837 | 28.90630 | 34975 ft | 483 kts | 127° |
| 2026-04-17 23:40 | 43.51792 | 28.97168 | 34974 ft | 483 kts | 127° |
| 2026-04-17 23:41 | 43.48157 | 29.04951 | 34970 ft | 483 kts | 127° |
| 2026-04-17 23:41 | 43.44532 | 29.12691 | 34957 ft | 483 kts | 127° |
| 2026-04-17 23:42 | 43.40886 | 29.20452 | 34965 ft | 482 kts | 127° |
| 2026-04-17 23:42 | 43.37244 | 29.28193 | 34957 ft | 482 kts | 127° |
| 2026-04-17 23:43 | 43.33588 | 29.35940 | 34959 ft | 482 kts | 127° |
| 2026-04-17 23:43 | 43.29932 | 29.43659 | 34948 ft | 481 kts | 127° |
| 2026-04-17 23:44 | 43.26279 | 29.51362 | 34951 ft | 480 kts | 127° |
| 2026-04-17 23:44 | 43.22651 | 29.58990 | 34949 ft | 480 kts | 127° |
| 2026-04-17 23:45 | 43.17161 | 29.70495 | 34937 ft | 480 kts | 127° |
| 2026-04-17 23:46 | 43.13493 | 29.78155 | 34940 ft | 480 kts | 127° |
| 2026-04-17 23:46 | 43.09821 | 29.85800 | 34952 ft | 480 kts | 127° |
| 2026-04-17 23:47 | 43.06143 | 29.93437 | 34940 ft | 479 kts | 127° |
| 2026-04-17 23:47 | 43.02488 | 30.01016 | 34940 ft | 478 kts | 127° |
| 2026-04-17 23:48 | 42.98826 | 30.08589 | 34934 ft | 478 kts | 127° |
| 2026-04-17 23:48 | 42.95152 | 30.16164 | 34929 ft | 478 kts | 127° |
| 2026-04-17 23:49 | 42.91476 | 30.23720 | 34924 ft | 477 kts | 127° |
| 2026-04-17 23:49 | 42.87828 | 30.31205 | 34925 ft | 477 kts | 127° |
| 2026-04-17 23:50 | 42.84140 | 30.38748 | 34920 ft | 477 kts | 127° |
| 2026-04-17 23:50 | 42.80448 | 30.46282 | 34909 ft | 476 kts | 127° |
| 2026-04-17 23:51 | 42.77035 | 30.54034 | 34913 ft | 478 kts | 120° |
| 2026-04-17 23:51 | 42.74425 | 30.62414 | 34911 ft | 482 kts | 112° |
| 2026-04-17 23:52 | 42.72721 | 30.71209 | 34906 ft | 486 kts | 103° |
| 2026-04-17 23:52 | 42.71735 | 30.80321 | 34902 ft | 484 kts | 101° |
| 2026-04-17 23:53 | 42.70831 | 30.89417 | 34902 ft | 484 kts | 101° |
| 2026-04-17 23:53 | 42.69909 | 30.98491 | 34896 ft | 484 kts | 101° |
| 2026-04-17 23:54 | 42.68973 | 31.07543 | 34893 ft | 483 kts | 101° |
| 2026-04-17 23:54 | 42.68022 | 31.16598 | 34886 ft | 482 kts | 101° |
| 2026-04-17 23:55 | 42.67071 | 31.25637 | 34889 ft | 482 kts | 101° |
| 2026-04-17 23:55 | 42.66119 | 31.34609 | 34887 ft | 482 kts | 101° |
| 2026-04-17 23:56 | 42.65156 | 31.43632 | 34881 ft | 482 kts | 101° |
| 2026-04-17 23:56 | 42.64182 | 31.52652 | 34879 ft | 481 kts | 101° |
| 2026-04-17 23:57 | 42.63204 | 31.61653 | 34878 ft | 480 kts | 101° |
| 2026-04-17 23:57 | 42.62220 | 31.70638 | 34873 ft | 480 kts | 101° |
| 2026-04-17 23:58 | 42.61228 | 31.79630 | 34873 ft | 480 kts | 101° |
| 2026-04-17 23:58 | 42.60228 | 31.88610 | 34863 ft | 480 kts | 101° |
| 2026-04-17 23:59 | 42.59230 | 31.97521 | 34864 ft | 480 kts | 101° |
| 2026-04-17 23:59 | 42.58232 | 32.06468 | 34865 ft | 480 kts | 101° |
| 2026-04-18 00:00 | 42.57220 | 32.15440 | 34860 ft | 480 kts | 101° |
| 2026-04-18 00:00 | 42.56195 | 32.24417 | 34857 ft | 480 kts | 102° |
| 2026-04-18 00:01 | 42.55159 | 32.33382 | 34859 ft | 480 kts | 102° |
| 2026-04-18 00:01 | 42.54116 | 32.42340 | 34849 ft | 480 kts | 102° |
| 2026-04-18 00:02 | 42.53066 | 32.51316 | 34853 ft | 481 kts | 102° |
| 2026-04-18 00:02 | 42.52023 | 32.60213 | 34848 ft | 478 kts | 103° |
| 2026-04-18 00:03 | 42.50966 | 32.69106 | 34851 ft | 476 kts | 103° |
| 2026-04-18 00:03 | 42.49899 | 32.77981 | 34846 ft | 476 kts | 103° |
| 2026-04-18 00:04 | 42.48831 | 32.86842 | 34843 ft | 476 kts | 103° |
| 2026-04-18 00:04 | 42.47756 | 32.95713 | 34843 ft | 476 kts | 104° |
| 2026-04-18 00:05 | 42.46676 | 33.04556 | 34835 ft | 476 kts | 104° |
| 2026-04-18 00:05 | 42.45586 | 33.13423 | 34835 ft | 476 kts | 104° |
| 2026-04-18 00:06 | 42.44493 | 33.22274 | 34838 ft | 476 kts | 104° |
| 2026-04-18 00:06 | 42.43405 | 33.31057 | 34834 ft | 473 kts | 105° |
| 2026-04-18 00:07 | 42.42301 | 33.39834 | 34835 ft | 471 kts | 105° |
| 2026-04-18 00:07 | 42.41196 | 33.48603 | 34829 ft | 472 kts | 105° |
| 2026-04-18 00:08 | 42.40082 | 33.57383 | 34832 ft | 473 kts | 105° |
| 2026-04-18 00:08 | 42.38962 | 33.66172 | 34829 ft | 473 kts | 106° |
| 2026-04-18 00:09 | 42.37833 | 33.74965 | 34831 ft | 472 kts | 106° |
| 2026-04-18 00:09 | 42.36701 | 33.83673 | 34832 ft | 472 kts | 106° |
| 2026-04-18 00:10 | 42.35562 | 33.92428 | 34830 ft | 472 kts | 106° |
| 2026-04-18 00:10 | 42.34424 | 34.01183 | 34815 ft | 472 kts | 107° |
| 2026-04-18 00:11 | 42.33276 | 34.09944 | 34828 ft | 472 kts | 107° |
| 2026-04-18 00:11 | 42.32118 | 34.18711 | 34818 ft | 472 kts | 107° |
| 2026-04-18 00:12 | 42.30962 | 34.27401 | 34828 ft | 472 kts | 107° |
| 2026-04-18 00:12 | 42.29791 | 34.36151 | 34813 ft | 472 kts | 107° |
| 2026-04-18 00:13 | 42.28615 | 34.44906 | 34817 ft | 473 kts | 107° |
| 2026-04-18 00:13 | 42.27426 | 34.53700 | 34821 ft | 477 kts | 107° |
| 2026-04-18 00:14 | 42.26221 | 34.62532 | 34828 ft | 477 kts | 107° |
| 2026-04-18 00:14 | 42.25012 | 34.71344 | 34808 ft | 477 kts | 107° |
| 2026-04-18 00:15 | 42.23793 | 34.80171 | 34823 ft | 477 kts | 107° |
| 2026-04-18 00:15 | 42.22569 | 34.88995 | 34830 ft | 477 kts | 108° |
| 2026-04-18 00:16 | 42.21336 | 34.97815 | 34832 ft | 477 kts | 108° |
| 2026-04-18 00:16 | 42.20106 | 35.06561 | 34820 ft | 477 kts | 108° |
| 2026-04-18 00:17 | 42.18856 | 35.15390 | 34833 ft | 479 kts | 108° |
| 2026-04-18 00:17 | 42.17596 | 35.24234 | 34834 ft | 479 kts | 108° |
| 2026-04-18 00:18 | 42.16330 | 35.33068 | 34835 ft | 479 kts | 108° |
| 2026-04-18 00:18 | 42.15057 | 35.41896 | 34817 ft | 479 kts | 108° |
| 2026-04-18 00:19 | 42.13783 | 35.50751 | 34827 ft | 481 kts | 109° |
| 2026-04-18 00:19 | 42.12491 | 35.59641 | 34833 ft | 482 kts | 109° |
| 2026-04-18 00:20 | 42.11195 | 35.68515 | 34842 ft | 482 kts | 109° |
| 2026-04-18 00:20 | 42.09897 | 35.77350 | 34821 ft | 483 kts | 109° |
| 2026-04-18 00:21 | 42.08583 | 35.86242 | 34835 ft | 484 kts | 109° |
| 2026-04-18 00:21 | 42.07260 | 35.95138 | 34837 ft | 484 kts | 109° |
| 2026-04-18 00:22 | 42.05932 | 36.04022 | 34841 ft | 484 kts | 109° |
| 2026-04-18 00:22 | 42.04597 | 36.12917 | 34824 ft | 485 kts | 109° |
| 2026-04-18 00:23 | 42.03249 | 36.21844 | 34839 ft | 487 kts | 110° |
| 2026-04-18 00:23 | 42.01887 | 36.30791 | 34838 ft | 487 kts | 110° |
| 2026-04-18 00:24 | 42.00522 | 36.39722 | 34835 ft | 487 kts | 110° |
| 2026-04-18 00:24 | 41.99150 | 36.48651 | 34828 ft | 487 kts | 110° |
| 2026-04-18 00:25 | 41.97770 | 36.57566 | 34838 ft | 490 kts | 110° |
| 2026-04-18 00:25 | 41.96376 | 36.66556 | 34835 ft | 490 kts | 110° |
| 2026-04-18 00:26 | 41.94974 | 36.75542 | 34829 ft | 490 kts | 110° |
| 2026-04-18 00:26 | 41.93565 | 36.84527 | 34826 ft | 492 kts | 110° |
| 2026-04-18 00:27 | 41.92138 | 36.93540 | 34831 ft | 492 kts | 110° |
| 2026-04-18 00:27 | 41.90582 | 37.02462 | 34829 ft | 488 kts | 115° |
| 2026-04-18 00:28 | 41.88387 | 37.10992 | 34827 ft | 479 kts | 121° |
| 2026-04-18 00:28 | 41.85794 | 37.19243 | 34821 ft | 478 kts | 122° |
| 2026-04-18 00:29 | 41.83630 | 37.26066 | 34821 ft | 478 kts | 122° |
| 2026-04-18 00:29 | 41.81030 | 37.34272 | 34823 ft | 478 kts | 122° |
| 2026-04-18 00:30 | 41.78428 | 37.42475 | 34812 ft | 478 kts | 122° |
| 2026-04-18 00:30 | 41.75827 | 37.50668 | 34821 ft | 476 kts | 122° |
| 2026-04-18 00:31 | 41.73221 | 37.58832 | 34826 ft | 476 kts | 123° |
| 2026-04-18 00:31 | 41.70610 | 37.66992 | 34824 ft | 476 kts | 123° |
| 2026-04-18 00:32 | 41.67996 | 37.75150 | 34813 ft | 477 kts | 123° |
| 2026-04-18 00:32 | 41.65381 | 37.83282 | 34811 ft | 479 kts | 123° |
| 2026-04-18 00:33 | 41.62724 | 37.91525 | 34834 ft | 479 kts | 123° |
| 2026-04-18 00:33 | 41.60079 | 37.99703 | 34809 ft | 479 kts | 123° |
| 2026-04-18 00:34 | 41.57443 | 38.07821 | 34825 ft | 480 kts | 123° |
| 2026-04-18 00:34 | 41.54777 | 38.16014 | 34831 ft | 480 kts | 123° |
| 2026-04-18 00:35 | 41.52102 | 38.24210 | 34836 ft | 480 kts | 123° |
| 2026-04-18 00:35 | 41.49421 | 38.32391 | 34830 ft | 482 kts | 123° |
| 2026-04-18 00:36 | 41.46722 | 38.40605 | 34836 ft | 483 kts | 123° |
| 2026-04-18 00:36 | 41.44016 | 38.48815 | 34837 ft | 486 kts | 122° |
| 2026-04-18 00:37 | 41.41275 | 38.57104 | 34826 ft | 489 kts | 122° |
| 2026-04-18 00:37 | 41.38507 | 38.65447 | 34835 ft | 494 kts | 122° |
| 2026-04-18 00:38 | 41.35746 | 38.73770 | 34836 ft | 494 kts | 122° |
| 2026-04-18 00:38 | 41.32962 | 38.82159 | 34831 ft | 494 kts | 122° |
| 2026-04-18 00:39 | 41.30211 | 38.90581 | 34824 ft | 498 kts | 121° |
| 2026-04-18 00:39 | 41.27444 | 38.99044 | 34830 ft | 499 kts | 121° |
| 2026-04-18 00:40 | 41.24662 | 39.07513 | 34831 ft | 499 kts | 121° |
| 2026-04-18 00:40 | 41.21871 | 39.15964 | 34828 ft | 500 kts | 121° |
| 2026-04-18 00:41 | 41.18989 | 39.24383 | 34830 ft | 500 kts | 123° |
| 2026-04-18 00:41 | 41.16048 | 39.32760 | 34833 ft | 500 kts | 123° |
| 2026-04-18 00:42 | 41.13124 | 39.41081 | 34828 ft | 500 kts | 123° |
| 2026-04-18 00:42 | 41.10182 | 39.49452 | 34834 ft | 500 kts | 123° |
| 2026-04-18 00:43 | 41.07238 | 39.57808 | 34830 ft | 500 kts | 123° |
| 2026-04-18 00:43 | 41.04284 | 39.66163 | 34832 ft | 500 kts | 123° |
| 2026-04-18 00:44 | 41.01665 | 39.74769 | 34823 ft | 507 kts | 115° |
| 2026-04-18 00:44 | 40.99911 | 39.83880 | 34830 ft | 515 kts | 106° |
| 2026-04-18 00:45 | 40.99112 | 39.93317 | 34834 ft | 522 kts | 98° |
| 2026-04-18 00:45 | 40.98913 | 40.02950 | 34815 ft | 523 kts | 96° |
| 2026-04-18 00:46 | 40.98724 | 40.12599 | 34821 ft | 523 kts | 97° |
| 2026-04-18 00:46 | 40.98482 | 40.22249 | 34820 ft | 526 kts | 97° |
| 2026-04-18 00:47 | 40.98222 | 40.31949 | 34829 ft | 526 kts | 97° |
| 2026-04-18 00:47 | 40.97951 | 40.41646 | 34834 ft | 526 kts | 97° |
| 2026-04-18 00:48 | 40.97668 | 40.51342 | 34843 ft | 526 kts | 97° |
| 2026-04-18 00:48 | 40.97380 | 40.61043 | 34852 ft | 526 kts | 97° |
| 2026-04-18 00:49 | 40.96932 | 40.75564 | 34841 ft | 526 kts | 97° |
| 2026-04-18 00:49 | 40.96624 | 40.85241 | 34851 ft | 525 kts | 97° |
| 2026-04-18 00:50 | 40.96302 | 40.94936 | 34862 ft | 527 kts | 97° |
| 2026-04-18 00:50 | 40.95985 | 41.04567 | 34869 ft | 528 kts | 97° |
| 2026-04-18 00:51 | 40.95654 | 41.14294 | 34905 ft | 528 kts | 97° |
| 2026-04-18 00:51 | 40.95312 | 41.24021 | 34909 ft | 529 kts | 97° |
| 2026-04-18 00:52 | 40.94954 | 41.33799 | 34935 ft | 533 kts | 96° |
| 2026-04-18 00:52 | 40.94595 | 41.43632 | 34964 ft | 534 kts | 96° |
| 2026-04-18 00:53 | 40.94226 | 41.53456 | 34968 ft | 534 kts | 97° |
| 2026-04-18 00:53 | 40.93848 | 41.63285 | 34986 ft | 534 kts | 97° |
| 2026-04-18 00:54 | 40.93460 | 41.73093 | 34980 ft | 534 kts | 97° |
| 2026-04-18 00:54 | 40.93060 | 41.82878 | 34995 ft | 537 kts | 96° |
| 2026-04-18 00:55 | 40.92654 | 41.92782 | 34981 ft | 539 kts | 96° |
| 2026-04-18 00:55 | 40.92242 | 42.02666 | 34985 ft | 539 kts | 96° |
| 2026-04-18 00:56 | 40.91817 | 42.12581 | 35006 ft | 538 kts | 96° |
| 2026-04-18 00:56 | 40.91381 | 42.22488 | 35011 ft | 539 kts | 96° |
| 2026-04-18 00:57 | 40.90942 | 42.32383 | 35030 ft | 538 kts | 96° |
| 2026-04-18 00:57 | 40.90487 | 42.42296 | 35026 ft | 540 kts | 95° |
| 2026-04-18 00:58 | 40.90030 | 42.52217 | 35029 ft | 540 kts | 95° |
| 2026-04-18 00:58 | 40.89562 | 42.62147 | 35060 ft | 540 kts | 95° |
| 2026-04-18 00:59 | 40.89090 | 42.72001 | 35062 ft | 540 kts | 95° |
| 2026-04-18 00:59 | 40.88606 | 42.81920 | 35073 ft | 540 kts | 95° |
| 2026-04-18 01:00 | 40.88108 | 42.91845 | 35074 ft | 542 kts | 95° |
| 2026-04-18 01:00 | 40.87601 | 43.01811 | 35080 ft | 543 kts | 95° |
| 2026-04-18 01:01 | 40.87091 | 43.11792 | 35093 ft | 544 kts | 95° |
| 2026-04-18 01:01 | 40.86569 | 43.21776 | 35089 ft | 543 kts | 95° |
| 2026-04-18 01:02 | 40.86037 | 43.31757 | 35099 ft | 543 kts | 95° |
| 2026-04-18 01:02 | 40.85497 | 43.41731 | 35117 ft | 543 kts | 95° |
| 2026-04-18 01:03 | 40.84944 | 43.51708 | 35115 ft | 544 kts | 95° |
| 2026-04-18 01:03 | 40.84387 | 43.61695 | 35113 ft | 544 kts | 95° |
| 2026-04-18 01:04 | 40.83854 | 43.71610 | 35109 ft | 544 kts | 94° |
| 2026-04-18 01:04 | 40.83551 | 43.81608 | 35110 ft | 544 kts | 92° |
| 2026-04-18 01:05 | 40.83253 | 43.91605 | 35105 ft | 544 kts | 93° |
| 2026-04-18 01:05 | 40.82915 | 44.01566 | 35104 ft | 541 kts | 92° |
| 2026-04-18 01:06 | 40.82572 | 44.11507 | 35089 ft | 541 kts | 92° |
| 2026-04-18 01:06 | 40.82218 | 44.21456 | 35085 ft | 541 kts | 92° |
| 2026-04-18 01:07 | 40.81856 | 44.31398 | 35081 ft | 541 kts | 92° |
| 2026-04-18 01:07 | 40.81487 | 44.41335 | 35083 ft | 541 kts | 92° |
| 2026-04-18 01:08 | 40.81103 | 44.51261 | 35080 ft | 540 kts | 92° |
| 2026-04-18 01:08 | 40.80718 | 44.61188 | 35051 ft | 540 kts | 92° |
| 2026-04-18 01:09 | 40.80325 | 44.71057 | 35072 ft | 540 kts | 92° |
| 2026-04-18 01:09 | 40.79924 | 44.80980 | 35076 ft | 540 kts | 92° |
| 2026-04-18 01:10 | 40.79512 | 44.90891 | 35082 ft | 540 kts | 92° |
| 2026-04-18 01:10 | 40.79088 | 45.00803 | 35082 ft | 540 kts | 92° |
| 2026-04-18 01:11 | 40.78657 | 45.10699 | 35088 ft | 539 kts | 91° |
| 2026-04-18 01:11 | 40.78222 | 45.20599 | 35088 ft | 539 kts | 91° |
| 2026-04-18 01:12 | 40.77778 | 45.30496 | 35096 ft | 539 kts | 91° |
| 2026-04-18 01:12 | 40.77324 | 45.40379 | 35094 ft | 539 kts | 92° |
| 2026-04-18 01:13 | 40.76836 | 45.50274 | 35099 ft | 540 kts | 93° |
| 2026-04-18 01:13 | 40.76007 | 45.60132 | 35097 ft | 540 kts | 95° |
| 2026-04-18 01:14 | 40.75105 | 45.69989 | 35103 ft | 540 kts | 95° |
| 2026-04-18 01:14 | 40.74199 | 45.79836 | 35100 ft | 540 kts | 95° |
| 2026-04-18 01:15 | 40.73296 | 45.89630 | 35101 ft | 540 kts | 95° |
| 2026-04-18 01:15 | 40.72377 | 45.99532 | 35114 ft | 540 kts | 95° |
| 2026-04-18 01:16 | 40.71462 | 46.09302 | 35118 ft | 540 kts | 95° |
| 2026-04-18 01:16 | 40.70532 | 46.19140 | 35128 ft | 540 kts | 95° |
| 2026-04-18 01:17 | 40.69592 | 46.28978 | 35129 ft | 540 kts | 95° |
| 2026-04-18 01:17 | 40.68645 | 46.38803 | 35130 ft | 540 kts | 95° |
| 2026-04-18 01:18 | 40.67852 | 46.46981 | 35125 ft | 540 kts | 95° |
| 2026-04-18 01:18 | 40.66890 | 46.56809 | 35130 ft | 540 kts | 95° |
| 2026-04-18 01:19 | 40.65918 | 46.66628 | 35119 ft | 540 kts | 95° |
| 2026-04-18 01:19 | 40.64938 | 46.76448 | 35110 ft | 539 kts | 95° |
| 2026-04-18 01:20 | 40.63954 | 46.86258 | 35114 ft | 539 kts | 95° |
| 2026-04-18 01:20 | 40.62961 | 46.96060 | 35111 ft | 539 kts | 95° |
| 2026-04-18 01:21 | 40.61958 | 47.05848 | 35115 ft | 539 kts | 95° |
| 2026-04-18 01:21 | 40.60952 | 47.15645 | 35129 ft | 539 kts | 94° |
| 2026-04-18 01:22 | 40.60423 | 47.25474 | 35120 ft | 537 kts | 88° |
| 2026-04-18 01:22 | 40.60170 | 47.35307 | 35117 ft | 537 kts | 88° |
| 2026-04-18 01:23 | 40.59908 | 47.45132 | 35118 ft | 537 kts | 88° |
| 2026-04-18 01:23 | 40.59619 | 47.54963 | 35118 ft | 537 kts | 89° |
| 2026-04-18 01:24 | 40.59315 | 47.64803 | 35131 ft | 538 kts | 89° |
| 2026-04-18 01:24 | 40.59003 | 47.74665 | 35132 ft | 539 kts | 89° |
| 2026-04-18 01:25 | 40.58680 | 47.84554 | 35128 ft | 539 kts | 89° |
| 2026-04-18 01:25 | 40.57895 | 47.94411 | 35135 ft | 543 kts | 97° |
| 2026-04-18 01:26 | 40.56167 | 48.04106 | 35126 ft | 546 kts | 105° |
| 2026-04-18 01:26 | 40.53796 | 48.13620 | 35123 ft | 546 kts | 107° |
| 2026-04-18 01:27 | 40.51421 | 48.23106 | 35135 ft | 546 kts | 106° |
| 2026-04-18 01:27 | 40.49073 | 48.32611 | 35127 ft | 546 kts | 105° |
| 2026-04-18 01:28 | 40.46721 | 48.42127 | 35127 ft | 547 kts | 105° |
| 2026-04-18 01:28 | 40.44373 | 48.51566 | 35123 ft | 547 kts | 105° |
| 2026-04-18 01:29 | 40.41995 | 48.61068 | 35128 ft | 547 kts | 105° |
| 2026-04-18 01:29 | 40.39604 | 48.70591 | 35128 ft | 548 kts | 105° |
| 2026-04-18 01:30 | 40.37212 | 48.80086 | 35131 ft | 548 kts | 105° |
| 2026-04-18 01:30 | 40.34807 | 48.89588 | 35134 ft | 548 kts | 105° |
| 2026-04-18 01:31 | 40.32390 | 48.99088 | 35139 ft | 548 kts | 105° |
| 2026-04-18 01:31 | 40.29966 | 49.08571 | 35125 ft | 549 kts | 105° |
| 2026-04-18 01:32 | 40.27511 | 49.18051 | 35124 ft | 549 kts | 106° |
| 2026-04-18 01:32 | 40.25053 | 49.27526 | 35114 ft | 549 kts | 105° |
| 2026-04-18 01:33 | 40.22601 | 49.37013 | 35115 ft | 549 kts | 105° |
| 2026-04-18 01:33 | 40.20202 | 49.46442 | 35111 ft | 547 kts | 103° |
| 2026-04-18 01:34 | 40.18462 | 49.56089 | 35107 ft | 542 kts | 95° |
| 2026-04-18 01:34 | 40.17496 | 49.65858 | 35111 ft | 540 kts | 91° |
| 2026-04-18 01:35 | 40.16645 | 49.75605 | 35127 ft | 538 kts | 92° |
| 2026-04-18 01:35 | 40.15762 | 49.85330 | 35102 ft | 537 kts | 92° |
| 2026-04-18 01:36 | 40.14854 | 49.95042 | 35116 ft | 537 kts | 92° |
| 2026-04-18 01:36 | 40.13936 | 50.04729 | 35115 ft | 537 kts | 92° |
| 2026-04-18 01:37 | 40.13007 | 50.14437 | 35110 ft | 537 kts | 92° |
| 2026-04-18 01:37 | 40.12073 | 50.24129 | 35120 ft | 535 kts | 92° |
| 2026-04-18 01:38 | 40.11131 | 50.33781 | 35121 ft | 534 kts | 92° |
| 2026-04-18 01:38 | 40.10184 | 50.43419 | 35115 ft | 534 kts | 93° |
| 2026-04-18 01:39 | 40.09233 | 50.53003 | 35114 ft | 534 kts | 93° |
| 2026-04-18 01:39 | 40.08269 | 50.62637 | 35116 ft | 534 kts | 93° |
| 2026-04-18 01:40 | 40.07301 | 50.72260 | 35133 ft | 533 kts | 93° |
| 2026-04-18 01:40 | 40.06324 | 50.81851 | 35124 ft | 532 kts | 93° |
| 2026-04-18 01:41 | 40.05341 | 50.91433 | 35120 ft | 532 kts | 93° |
| 2026-04-18 01:41 | 40.04350 | 51.01011 | 35119 ft | 532 kts | 93° |
| 2026-04-18 01:42 | 40.03351 | 51.10592 | 35121 ft | 532 kts | 93° |
| 2026-04-18 01:42 | 40.02342 | 51.20183 | 35138 ft | 532 kts | 94° |
| 2026-04-18 01:43 | 40.01326 | 51.29765 | 35128 ft | 532 kts | 94° |
| 2026-04-18 01:43 | 40.00302 | 51.39342 | 35128 ft | 532 kts | 94° |
| 2026-04-18 01:44 | 39.99243 | 51.48844 | 35123 ft | 533 kts | 96° |
| 2026-04-18 01:44 | 39.97641 | 51.58335 | 35129 ft | 537 kts | 100° |
| 2026-04-18 01:45 | 39.95853 | 51.67790 | 35127 ft | 537 kts | 100° |
| 2026-04-18 01:45 | 39.94060 | 51.77255 | 35128 ft | 537 kts | 100° |
| 2026-04-18 01:46 | 39.92269 | 51.86724 | 35128 ft | 537 kts | 100° |
| 2026-04-18 01:46 | 39.90474 | 51.96183 | 35129 ft | 537 kts | 100° |
| 2026-04-18 01:47 | 39.88674 | 52.05641 | 35128 ft | 537 kts | 100° |
| 2026-04-18 01:47 | 39.86865 | 52.15097 | 35128 ft | 537 kts | 100° |
| 2026-04-18 01:48 | 39.85046 | 52.24551 | 35137 ft | 538 kts | 100° |
| 2026-04-18 01:48 | 39.83224 | 52.33961 | 35134 ft | 539 kts | 100° |
| 2026-04-18 01:49 | 39.81390 | 52.43426 | 35128 ft | 539 kts | 100° |
| 2026-04-18 01:49 | 39.79545 | 52.52888 | 35125 ft | 539 kts | 100° |
| 2026-04-18 01:50 | 39.77689 | 52.62351 | 35130 ft | 540 kts | 100° |
| 2026-04-18 01:50 | 39.75821 | 52.71839 | 35129 ft | 541 kts | 100° |
| 2026-04-18 01:51 | 39.73946 | 52.81310 | 35129 ft | 541 kts | 100° |
| 2026-04-18 01:51 | 39.72084 | 52.90791 | 35143 ft | 541 kts | 99° |
| 2026-04-18 01:52 | 39.70248 | 53.00275 | 35133 ft | 542 kts | 99° |
| 2026-04-18 01:52 | 39.68400 | 53.09773 | 35131 ft | 542 kts | 99° |
| 2026-04-18 01:53 | 39.66538 | 53.19271 | 35130 ft | 542 kts | 99° |
| 2026-04-18 01:54 | 39.63722 | 53.33526 | 35131 ft | 543 kts | 99° |
| 2026-04-18 01:54 | 39.61836 | 53.43016 | 35157 ft | 543 kts | 99° |
| 2026-04-18 01:55 | 39.59944 | 53.52494 | 35138 ft | 542 kts | 99° |
| 2026-04-18 01:55 | 39.58046 | 53.61964 | 35140 ft | 541 kts | 100° |
| 2026-04-18 01:56 | 39.56143 | 53.71413 | 35137 ft | 541 kts | 100° |
| 2026-04-18 01:56 | 39.54241 | 53.80796 | 35139 ft | 541 kts | 100° |
| 2026-04-18 01:57 | 39.52322 | 53.90231 | 35135 ft | 541 kts | 100° |
| 2026-04-18 01:57 | 39.50396 | 53.99680 | 35163 ft | 540 kts | 101° |
| 2026-04-18 01:58 | 39.48471 | 54.09022 | 35134 ft | 536 kts | 102° |
| 2026-04-18 01:58 | 39.46516 | 54.18364 | 35137 ft | 536 kts | 102° |
| 2026-04-18 01:59 | 39.44573 | 54.27613 | 35139 ft | 536 kts | 102° |
| 2026-04-18 01:59 | 39.42616 | 54.36923 | 35146 ft | 535 kts | 102° |
| 2026-04-18 02:00 | 39.40649 | 54.46211 | 35138 ft | 535 kts | 102° |
| 2026-04-18 02:00 | 39.38679 | 54.55491 | 35166 ft | 534 kts | 103° |
| 2026-04-18 02:01 | 39.36715 | 54.64712 | 35150 ft | 530 kts | 103° |
| 2026-04-18 02:01 | 39.34743 | 54.73898 | 35147 ft | 529 kts | 103° |
| 2026-04-18 02:02 | 39.32766 | 54.83079 | 35145 ft | 529 kts | 103° |
| 2026-04-18 02:02 | 39.30784 | 54.92250 | 35143 ft | 529 kts | 103° |
| 2026-04-18 02:03 | 39.28815 | 55.01338 | 35169 ft | 529 kts | 103° |
| 2026-04-18 02:03 | 39.26826 | 55.10480 | 35155 ft | 526 kts | 104° |
| 2026-04-18 02:04 | 39.24834 | 55.19565 | 35156 ft | 526 kts | 104° |
| 2026-04-18 02:04 | 39.22836 | 55.28660 | 35160 ft | 525 kts | 104° |
| 2026-04-18 02:05 | 39.20840 | 55.37715 | 35154 ft | 524 kts | 104° |
| 2026-04-18 02:05 | 39.19170 | 55.45241 | 35155 ft | 524 kts | 105° |
| 2026-04-18 02:06 | 39.17161 | 55.54275 | 35172 ft | 524 kts | 105° |
| 2026-04-18 02:06 | 39.15157 | 55.63270 | 35140 ft | 520 kts | 105° |
| 2026-04-18 02:07 | 39.13134 | 55.72277 | 35153 ft | 523 kts | 105° |
| 2026-04-18 02:07 | 39.11106 | 55.81281 | 35178 ft | 522 kts | 106° |
| 2026-04-18 02:08 | 39.09086 | 55.90220 | 35161 ft | 518 kts | 106° |
| 2026-04-18 02:08 | 39.07054 | 55.99145 | 35144 ft | 519 kts | 106° |
| 2026-04-18 02:09 | 39.05017 | 56.08072 | 35154 ft | 521 kts | 106° |
| 2026-04-18 02:09 | 39.02964 | 56.17037 | 35157 ft | 521 kts | 106° |
| 2026-04-18 02:10 | 39.00903 | 56.25995 | 35157 ft | 521 kts | 106° |
| 2026-04-18 02:10 | 38.98671 | 56.34865 | 35156 ft | 521 kts | 109° |
| 2026-04-18 02:11 | 38.96265 | 56.43642 | 35155 ft | 520 kts | 110° |
| 2026-04-18 02:11 | 38.93863 | 56.52341 | 35152 ft | 520 kts | 110° |
| 2026-04-18 02:12 | 38.91448 | 56.61095 | 35157 ft | 518 kts | 110° |
| 2026-04-18 02:12 | 38.89032 | 56.69826 | 35146 ft | 518 kts | 110° |
| 2026-04-18 02:13 | 38.86605 | 56.78558 | 35144 ft | 519 kts | 110° |
| 2026-04-18 02:13 | 38.84174 | 56.87287 | 35162 ft | 518 kts | 111° |
| 2026-04-18 02:14 | 38.81746 | 56.95978 | 35124 ft | 516 kts | 111° |
| 2026-04-18 02:14 | 38.79308 | 57.04663 | 35138 ft | 519 kts | 111° |
| 2026-04-18 02:15 | 38.76856 | 57.13375 | 35149 ft | 518 kts | 111° |
| 2026-04-18 02:15 | 38.74402 | 57.22073 | 35141 ft | 517 kts | 111° |
| 2026-04-18 02:16 | 38.71943 | 57.30751 | 35134 ft | 518 kts | 111° |
| 2026-04-18 02:16 | 38.69469 | 57.39453 | 35147 ft | 519 kts | 111° |
| 2026-04-18 02:17 | 38.66994 | 57.48136 | 35140 ft | 518 kts | 112° |
| 2026-04-18 02:17 | 38.64507 | 57.56821 | 35138 ft | 518 kts | 112° |
| 2026-04-18 02:18 | 38.62025 | 57.65420 | 35130 ft | 519 kts | 113° |
| 2026-04-18 02:18 | 38.59171 | 57.73902 | 35134 ft | 517 kts | 116° |
| 2026-04-18 02:19 | 38.56223 | 57.82297 | 35129 ft | 517 kts | 116° |
| 2026-04-18 02:19 | 38.53273 | 57.90689 | 35131 ft | 517 kts | 116° |
| 2026-04-18 02:20 | 38.50330 | 57.99066 | 35133 ft | 514 kts | 117° |
| 2026-04-18 02:20 | 38.47396 | 58.07385 | 35133 ft | 514 kts | 117° |
| 2026-04-18 02:21 | 38.44452 | 58.15708 | 35140 ft | 514 kts | 117° |
| 2026-04-18 02:21 | 38.41521 | 58.23980 | 35123 ft | 512 kts | 117° |
| 2026-04-18 02:22 | 38.38258 | 58.32029 | 35124 ft | 508 kts | 124° |
| 2026-04-18 02:22 | 38.34619 | 58.39767 | 35133 ft | 508 kts | 124° |
| 2026-04-18 02:23 | 38.30962 | 58.47492 | 35130 ft | 508 kts | 124° |
| 2026-04-18 02:23 | 38.27321 | 58.55204 | 35128 ft | 507 kts | 125° |
| 2026-04-18 02:24 | 38.23671 | 58.62901 | 35129 ft | 507 kts | 125° |
| 2026-04-18 02:24 | 38.20014 | 58.70601 | 35128 ft | 507 kts | 125° |
| 2026-04-18 02:25 | 38.16377 | 58.78248 | 35115 ft | 509 kts | 125° |
| 2026-04-18 02:25 | 38.12698 | 58.85961 | 35127 ft | 510 kts | 126° |
| 2026-04-18 02:26 | 38.09017 | 58.93659 | 35129 ft | 510 kts | 126° |
| 2026-04-18 02:26 | 38.05334 | 59.01346 | 35112 ft | 510 kts | 126° |
| 2026-04-18 02:27 | 38.01637 | 59.09060 | 35127 ft | 510 kts | 126° |
| 2026-04-18 02:27 | 37.97940 | 59.16728 | 35134 ft | 510 kts | 126° |
| 2026-04-18 02:28 | 37.94224 | 59.24418 | 35132 ft | 510 kts | 126° |
| 2026-04-18 02:28 | 37.90513 | 59.32084 | 35121 ft | 510 kts | 127° |
| 2026-04-18 02:29 | 37.86477 | 59.39423 | 35138 ft | 505 kts | 133° |
| 2026-04-18 02:29 | 37.82216 | 59.46496 | 35141 ft | 505 kts | 133° |
| 2026-04-18 02:30 | 37.77983 | 59.53502 | 35128 ft | 505 kts | 133° |
| 2026-04-18 02:30 | 37.73710 | 59.60573 | 35133 ft | 506 kts | 133° |
| 2026-04-18 02:31 | 37.69440 | 59.67637 | 35153 ft | 505 kts | 133° |
| 2026-04-18 02:31 | 37.65167 | 59.74684 | 35129 ft | 504 kts | 134° |
| 2026-04-18 02:32 | 37.60887 | 59.81727 | 35140 ft | 505 kts | 134° |
| 2026-04-18 02:32 | 37.56601 | 59.88768 | 35147 ft | 505 kts | 134° |
| 2026-04-18 02:33 | 37.52315 | 59.95798 | 35154 ft | 505 kts | 134° |
| 2026-04-18 02:33 | 37.48027 | 60.02808 | 35136 ft | 506 kts | 134° |
| 2026-04-18 02:34 | 37.43726 | 60.09830 | 35152 ft | 506 kts | 134° |
| 2026-04-18 02:34 | 37.39421 | 60.16844 | 35152 ft | 506 kts | 134° |
| 2026-04-18 02:35 | 37.35124 | 60.23833 | 35137 ft | 504 kts | 134° |
| 2026-04-18 02:35 | 37.30861 | 60.30747 | 35153 ft | 503 kts | 134° |
| 2026-04-18 02:36 | 37.26565 | 60.37700 | 35156 ft | 503 kts | 134° |
| 2026-04-18 02:36 | 37.22265 | 60.44647 | 35162 ft | 503 kts | 134° |
| 2026-04-18 02:37 | 37.17967 | 60.51578 | 35163 ft | 501 kts | 134° |
| 2026-04-18 02:37 | 37.13676 | 60.58481 | 35169 ft | 501 kts | 134° |
| 2026-04-18 02:38 | 37.09384 | 60.65370 | 35172 ft | 501 kts | 134° |
| 2026-04-18 02:38 | 37.05107 | 60.72216 | 35150 ft | 501 kts | 134° |
| 2026-04-18 02:39 | 37.00812 | 60.79085 | 35174 ft | 500 kts | 134° |
| 2026-04-18 02:39 | 36.96586 | 60.86004 | 35173 ft | 502 kts | 131° |
| 2026-04-18 02:40 | 36.92562 | 60.93167 | 35140 ft | 502 kts | 131° |
| 2026-04-18 02:40 | 36.88549 | 61.00315 | 35170 ft | 503 kts | 131° |
| 2026-04-18 02:41 | 36.84522 | 61.07470 | 35175 ft | 502 kts | 131° |
| 2026-04-18 02:41 | 36.80496 | 61.14599 | 35177 ft | 502 kts | 131° |
| 2026-04-18 02:42 | 36.76458 | 61.21729 | 35171 ft | 502 kts | 131° |
| 2026-04-18 02:42 | 36.72428 | 61.28831 | 35181 ft | 501 kts | 131° |
| 2026-04-18 02:43 | 36.68413 | 61.35896 | 35187 ft | 501 kts | 131° |
| 2026-04-18 02:43 | 36.64379 | 61.42975 | 35185 ft | 501 kts | 131° |
| 2026-04-18 02:44 | 36.60320 | 61.50029 | 35175 ft | 500 kts | 132° |
| 2026-04-18 02:44 | 36.56217 | 61.57024 | 35184 ft | 499 kts | 132° |
| 2026-04-18 02:45 | 36.52107 | 61.64011 | 35189 ft | 499 kts | 132° |
| 2026-04-18 02:45 | 36.48003 | 61.70982 | 35164 ft | 499 kts | 132° |
| 2026-04-18 02:46 | 36.43894 | 61.77945 | 35180 ft | 499 kts | 132° |
| 2026-04-18 02:46 | 36.39780 | 61.84911 | 35191 ft | 499 kts | 132° |
| 2026-04-18 02:47 | 36.35666 | 61.91862 | 35199 ft | 499 kts | 132° |
| 2026-04-18 02:47 | 36.31549 | 61.98804 | 35186 ft | 499 kts | 132° |
| 2026-04-18 02:48 | 36.27435 | 62.05723 | 35192 ft | 499 kts | 132° |
| 2026-04-18 02:48 | 36.23332 | 62.12613 | 35195 ft | 499 kts | 132° |
| 2026-04-18 02:49 | 36.19208 | 62.19524 | 35195 ft | 499 kts | 132° |
| 2026-04-18 02:49 | 36.15076 | 62.26435 | 35183 ft | 499 kts | 133° |
| 2026-04-18 02:50 | 36.10937 | 62.33342 | 35191 ft | 499 kts | 133° |
| 2026-04-18 02:50 | 36.06792 | 62.40244 | 35192 ft | 499 kts | 133° |
| 2026-04-18 02:51 | 36.02633 | 62.47158 | 35192 ft | 499 kts | 133° |
| 2026-04-18 02:51 | 35.99184 | 62.52881 | 35194 ft | 500 kts | 133° |
| 2026-04-18 02:52 | 35.94345 | 62.60894 | 35192 ft | 500 kts | 133° |
| 2026-04-18 02:52 | 35.90856 | 62.66659 | 35197 ft | 500 kts | 133° |
| 2026-04-18 02:53 | 35.86688 | 62.73533 | 35193 ft | 500 kts | 133° |
| 2026-04-18 02:53 | 35.82543 | 62.80359 | 35184 ft | 501 kts | 133° |
| 2026-04-18 02:54 | 35.78359 | 62.87231 | 35190 ft | 501 kts | 133° |
| 2026-04-18 02:54 | 35.74171 | 62.94097 | 35192 ft | 500 kts | 133° |
| 2026-04-18 02:55 | 35.69991 | 63.00936 | 35190 ft | 500 kts | 133° |
| 2026-04-18 02:55 | 35.65792 | 63.07792 | 35187 ft | 500 kts | 133° |
| 2026-04-18 02:56 | 35.61593 | 63.14635 | 35184 ft | 500 kts | 133° |
| 2026-04-18 02:56 | 35.55275 | 63.24856 | 35184 ft | 500 kts | 134° |
| 2026-04-18 02:57 | 35.51056 | 63.31591 | 35177 ft | 500 kts | 134° |
| 2026-04-18 02:57 | 35.46772 | 63.38411 | 35174 ft | 501 kts | 134° |
| 2026-04-18 02:58 | 35.42539 | 63.45143 | 35177 ft | 501 kts | 134° |
| 2026-04-18 02:58 | 35.38277 | 63.51911 | 35167 ft | 501 kts | 134° |
| 2026-04-18 02:59 | 35.34009 | 63.58675 | 35154 ft | 502 kts | 135° |
| 2026-04-18 02:59 | 35.29728 | 63.65445 | 35150 ft | 502 kts | 135° |
| 2026-04-18 03:00 | 35.25457 | 63.72230 | 35149 ft | 502 kts | 135° |
| 2026-04-18 03:00 | 35.21190 | 63.79006 | 35110 ft | 503 kts | 135° |
| 2026-04-18 03:01 | 35.16905 | 63.85796 | 35128 ft | 504 kts | 135° |
| 2026-04-18 03:01 | 35.12606 | 63.92584 | 35130 ft | 504 kts | 135° |
| 2026-04-18 03:02 | 35.08300 | 63.99371 | 35115 ft | 504 kts | 135° |
| 2026-04-18 03:02 | 35.04002 | 64.06136 | 35095 ft | 504 kts | 135° |
| 2026-04-18 03:03 | 34.99690 | 64.12911 | 35098 ft | 506 kts | 136° |
| 2026-04-18 03:03 | 34.95363 | 64.19695 | 35100 ft | 506 kts | 136° |
| 2026-04-18 03:04 | 34.91064 | 64.26416 | 35097 ft | 506 kts | 136° |
| 2026-04-18 03:04 | 34.86722 | 64.33195 | 35050 ft | 506 kts | 136° |
| 2026-04-18 03:05 | 34.82393 | 64.39950 | 35077 ft | 505 kts | 136° |
| 2026-04-18 03:05 | 34.78054 | 64.46693 | 35077 ft | 506 kts | 136° |
| 2026-04-18 03:06 | 34.73715 | 64.53427 | 35078 ft | 506 kts | 136° |
| 2026-04-18 03:06 | 34.69367 | 64.60164 | 35042 ft | 506 kts | 136° |
| 2026-04-18 03:07 | 34.65015 | 64.66896 | 35068 ft | 506 kts | 136° |
| 2026-04-18 03:07 | 34.60660 | 64.73616 | 35085 ft | 506 kts | 136° |
| 2026-04-18 03:08 | 34.56299 | 64.80335 | 35084 ft | 506 kts | 136° |
| 2026-04-18 03:08 | 34.51942 | 64.87032 | 35062 ft | 506 kts | 136° |
| 2026-04-18 03:09 | 34.47574 | 64.93732 | 35081 ft | 506 kts | 137° |
| 2026-04-18 03:09 | 34.43207 | 65.00411 | 35085 ft | 506 kts | 137° |
| 2026-04-18 03:10 | 34.38822 | 65.07100 | 35086 ft | 506 kts | 137° |
| 2026-04-18 03:10 | 34.34438 | 65.13775 | 35054 ft | 506 kts | 137° |
| 2026-04-18 03:11 | 34.30084 | 65.20389 | 35089 ft | 505 kts | 137° |
| 2026-04-18 03:11 | 34.25702 | 65.27038 | 35094 ft | 504 kts | 137° |
| 2026-04-18 03:12 | 34.21322 | 65.33672 | 35095 ft | 504 kts | 137° |
| 2026-04-18 03:12 | 34.16939 | 65.40294 | 35070 ft | 504 kts | 137° |
| 2026-04-18 03:13 | 34.12552 | 65.46908 | 35095 ft | 503 kts | 137° |
| 2026-04-18 03:13 | 34.08178 | 65.53495 | 35104 ft | 503 kts | 137° |
| 2026-04-18 03:14 | 34.03829 | 65.60043 | 35099 ft | 503 kts | 137° |
| 2026-04-18 03:14 | 33.99459 | 65.66622 | 35096 ft | 503 kts | 137° |
| 2026-04-18 03:15 | 33.95078 | 65.73207 | 35087 ft | 503 kts | 137° |
| 2026-04-18 03:15 | 33.90695 | 65.79778 | 35095 ft | 503 kts | 137° |
| 2026-04-18 03:16 | 33.86304 | 65.86347 | 35096 ft | 503 kts | 137° |
| 2026-04-18 03:16 | 33.81915 | 65.92902 | 35099 ft | 502 kts | 137° |
| 2026-04-18 03:17 | 33.77525 | 65.99446 | 35085 ft | 502 kts | 137° |
| 2026-04-18 03:17 | 33.73142 | 66.05966 | 35081 ft | 501 kts | 137° |
| 2026-04-18 03:18 | 33.68751 | 66.12490 | 35085 ft | 501 kts | 137° |
| 2026-04-18 03:18 | 33.64359 | 66.19003 | 35077 ft | 501 kts | 137° |
| 2026-04-18 03:19 | 33.59970 | 66.25496 | 35070 ft | 501 kts | 137° |
| 2026-04-18 03:19 | 33.55577 | 66.31989 | 35073 ft | 500 kts | 137° |
| 2026-04-18 03:20 | 33.51182 | 66.38469 | 35078 ft | 500 kts | 137° |
| 2026-04-18 03:20 | 33.46779 | 66.44947 | 35072 ft | 500 kts | 137° |
| 2026-04-18 03:21 | 33.42395 | 66.51372 | 35055 ft | 500 kts | 137° |
| 2026-04-18 03:21 | 33.37988 | 66.57806 | 35079 ft | 499 kts | 137° |
| 2026-04-18 03:22 | 33.33578 | 66.64241 | 35082 ft | 499 kts | 137° |
| 2026-04-18 03:22 | 33.29168 | 66.70658 | 35095 ft | 499 kts | 137° |
| 2026-04-18 03:23 | 33.24753 | 66.77072 | 35101 ft | 499 kts | 137° |
| 2026-04-18 03:23 | 33.20358 | 66.83440 | 35093 ft | 498 kts | 137° |
| 2026-04-18 03:24 | 33.15945 | 66.89831 | 35092 ft | 498 kts | 137° |
| 2026-04-18 03:24 | 33.11519 | 66.96226 | 35110 ft | 498 kts | 137° |
| 2026-04-18 03:25 | 33.07103 | 67.02598 | 35110 ft | 498 kts | 137° |
| 2026-04-18 03:25 | 33.02684 | 67.08959 | 35087 ft | 497 kts | 137° |
| 2026-04-18 03:26 | 32.98272 | 67.15302 | 35093 ft | 497 kts | 137° |
| 2026-04-18 03:26 | 32.93854 | 67.21645 | 35081 ft | 497 kts | 137° |
| 2026-04-18 03:27 | 32.89454 | 67.27947 | 35060 ft | 498 kts | 137° |
| 2026-04-18 03:27 | 32.85027 | 67.34277 | 35029 ft | 497 kts | 137° |
| 2026-04-18 03:28 | 32.80599 | 67.40597 | 35047 ft | 497 kts | 137° |
| 2026-04-18 03:28 | 32.76153 | 67.46892 | 35052 ft | 495 kts | 138° |
| 2026-04-18 03:29 | 32.71592 | 67.53024 | 35037 ft | 494 kts | 139° |
| 2026-04-18 03:29 | 32.67014 | 67.59129 | 35039 ft | 495 kts | 139° |
| 2026-04-18 03:30 | 32.62431 | 67.65260 | 35030 ft | 496 kts | 139° |
| 2026-04-18 03:30 | 32.57849 | 67.71394 | 35031 ft | 496 kts | 139° |
| 2026-04-18 03:31 | 32.53258 | 67.77528 | 35033 ft | 496 kts | 139° |
| 2026-04-18 03:31 | 32.48730 | 67.83721 | 35032 ft | 498 kts | 136° |
| 2026-04-18 03:32 | 32.44348 | 67.90022 | 35019 ft | 498 kts | 136° |
| 2026-04-18 03:32 | 32.39941 | 67.96357 | 35027 ft | 498 kts | 136° |
| 2026-04-18 03:33 | 32.35537 | 68.02676 | 35029 ft | 498 kts | 136° |
| 2026-04-18 03:33 | 32.31125 | 68.08989 | 35038 ft | 497 kts | 136° |
| 2026-04-18 03:34 | 32.26711 | 68.15295 | 35036 ft | 497 kts | 136° |
| 2026-04-18 03:34 | 32.22288 | 68.21596 | 35030 ft | 497 kts | 136° |
| 2026-04-18 03:35 | 32.17861 | 68.27899 | 35046 ft | 498 kts | 136° |
| 2026-04-18 03:35 | 32.13435 | 68.34191 | 35063 ft | 498 kts | 136° |
| 2026-04-18 03:36 | 32.08996 | 68.40490 | 35055 ft | 498 kts | 136° |
| 2026-04-18 03:36 | 32.04562 | 68.46770 | 35058 ft | 498 kts | 136° |
| 2026-04-18 03:37 | 32.00154 | 68.53004 | 35053 ft | 498 kts | 136° |
| 2026-04-18 03:37 | 31.95716 | 68.59265 | 35054 ft | 499 kts | 136° |
| 2026-04-18 03:38 | 31.91263 | 68.65542 | 35057 ft | 498 kts | 136° |
| 2026-04-18 03:38 | 31.86807 | 68.71811 | 35057 ft | 498 kts | 136° |
| 2026-04-18 03:39 | 31.83100 | 68.77017 | 35042 ft | 499 kts | 136° |
| 2026-04-18 03:39 | 31.78637 | 68.83277 | 35049 ft | 499 kts | 136° |
| 2026-04-18 03:40 | 31.74170 | 68.89531 | 35044 ft | 499 kts | 136° |
| 2026-04-18 03:40 | 31.69699 | 68.95783 | 35044 ft | 500 kts | 136° |
| 2026-04-18 03:41 | 31.65245 | 69.02050 | 35044 ft | 501 kts | 135° |
| 2026-04-18 03:41 | 31.60922 | 69.08488 | 35037 ft | 502 kts | 134° |
| 2026-04-18 03:42 | 31.56609 | 69.14947 | 35037 ft | 502 kts | 134° |
| 2026-04-18 03:42 | 31.52298 | 69.21352 | 35034 ft | 502 kts | 134° |
| 2026-04-18 03:43 | 31.47960 | 69.27771 | 35030 ft | 502 kts | 134° |
| 2026-04-18 03:43 | 31.43610 | 69.34195 | 35012 ft | 502 kts | 134° |
| 2026-04-18 03:44 | 31.39256 | 69.40597 | 35027 ft | 502 kts | 135° |
| 2026-04-18 03:44 | 31.34581 | 69.46606 | 35030 ft | 496 kts | 142° |
| 2026-04-18 03:45 | 31.29428 | 69.51906 | 35031 ft | 491 kts | 147° |
| 2026-04-18 03:45 | 31.24105 | 69.56929 | 35029 ft | 492 kts | 147° |
| 2026-04-18 03:46 | 31.18755 | 69.61978 | 35024 ft | 493 kts | 147° |
| 2026-04-18 03:46 | 31.13460 | 69.66981 | 35032 ft | 493 kts | 147° |
| 2026-04-18 03:47 | 31.08081 | 69.72062 | 35033 ft | 493 kts | 147° |
| 2026-04-18 03:47 | 31.02776 | 69.77065 | 35033 ft | 493 kts | 147° |
| 2026-04-18 03:48 | 30.97443 | 69.82086 | 35013 ft | 493 kts | 147° |
| 2026-04-18 03:48 | 30.92102 | 69.87106 | 35027 ft | 493 kts | 147° |
| 2026-04-18 03:49 | 30.86745 | 69.92134 | 35018 ft | 494 kts | 147° |
| 2026-04-18 03:49 | 30.81422 | 69.97125 | 34998 ft | 494 kts | 147° |
| 2026-04-18 03:50 | 30.76073 | 70.02132 | 34990 ft | 494 kts | 147° |
| 2026-04-18 03:50 | 30.70720 | 70.07135 | 34975 ft | 493 kts | 147° |
| 2026-04-18 03:51 | 30.65371 | 70.12129 | 34976 ft | 493 kts | 147° |
| 2026-04-18 03:51 | 30.60012 | 70.17122 | 34977 ft | 493 kts | 147° |
| 2026-04-18 03:52 | 30.54655 | 70.22104 | 34949 ft | 494 kts | 147° |
| 2026-04-18 03:52 | 30.49278 | 70.27099 | 34938 ft | 496 kts | 146° |
| 2026-04-18 03:53 | 30.43889 | 70.32101 | 34948 ft | 496 kts | 146° |
| 2026-04-18 03:53 | 30.38503 | 70.37092 | 34922 ft | 496 kts | 146° |
| 2026-04-18 03:54 | 30.33142 | 70.42051 | 34914 ft | 496 kts | 146° |
| 2026-04-18 03:54 | 30.27747 | 70.47032 | 34907 ft | 496 kts | 146° |
| 2026-04-18 03:55 | 30.22356 | 70.52005 | 34890 ft | 496 kts | 146° |
| 2026-04-18 03:55 | 30.16996 | 70.57049 | 34889 ft | 497 kts | 146° |
| 2026-04-18 03:56 | 30.11644 | 70.62132 | 34884 ft | 498 kts | 146° |
| 2026-04-18 03:56 | 30.06286 | 70.67203 | 34884 ft | 497 kts | 146° |
| 2026-04-18 03:57 | 29.98240 | 70.74790 | 34878 ft | 498 kts | 146° |
| 2026-04-18 03:58 | 29.92871 | 70.79844 | 34876 ft | 498 kts | 146° |
| 2026-04-18 03:58 | 29.87504 | 70.84888 | 34876 ft | 497 kts | 146° |
| 2026-04-18 03:59 | 29.82128 | 70.89932 | 34870 ft | 498 kts | 146° |
| 2026-04-18 03:59 | 29.76742 | 70.94976 | 34865 ft | 499 kts | 146° |
| 2026-04-18 04:00 | 29.71354 | 71.00017 | 34865 ft | 499 kts | 146° |
| 2026-04-18 04:00 | 29.66026 | 71.05166 | 34866 ft | 501 kts | 143° |
| 2026-04-18 04:01 | 29.60816 | 71.10494 | 34867 ft | 501 kts | 143° |
| 2026-04-18 04:01 | 29.55639 | 71.15785 | 34858 ft | 501 kts | 143° |
| 2026-04-18 04:02 | 29.50424 | 71.21103 | 34862 ft | 501 kts | 143° |
| 2026-04-18 04:02 | 29.45196 | 71.26424 | 34860 ft | 501 kts | 143° |
| 2026-04-18 04:03 | 29.39983 | 71.31721 | 34862 ft | 501 kts | 143° |
| 2026-04-18 04:03 | 29.34756 | 71.37024 | 34861 ft | 501 kts | 143° |
| 2026-04-18 04:04 | 29.29535 | 71.42312 | 34853 ft | 500 kts | 143° |
| 2026-04-18 04:04 | 29.24341 | 71.47619 | 34857 ft | 500 kts | 143° |
| 2026-04-18 04:05 | 29.19146 | 71.52939 | 34856 ft | 500 kts | 143° |
| 2026-04-18 04:05 | 29.13946 | 71.58248 | 34852 ft | 501 kts | 143° |
| 2026-04-18 04:06 | 29.08770 | 71.63523 | 34842 ft | 501 kts | 142° |
| 2026-04-18 04:06 | 29.03564 | 71.68823 | 34851 ft | 501 kts | 143° |
| 2026-04-18 04:07 | 28.98362 | 71.74109 | 34851 ft | 501 kts | 143° |
| 2026-04-18 04:07 | 28.93153 | 71.79395 | 34853 ft | 501 kts | 143° |
| 2026-04-18 04:08 | 28.87939 | 71.84679 | 34846 ft | 501 kts | 143° |
| 2026-04-18 04:08 | 28.82734 | 71.89948 | 34843 ft | 500 kts | 143° |
| 2026-04-18 04:09 | 28.77524 | 71.95214 | 34846 ft | 499 kts | 143° |
| 2026-04-18 04:09 | 28.72326 | 72.00457 | 34848 ft | 499 kts | 143° |
| 2026-04-18 04:10 | 28.67114 | 72.05708 | 34844 ft | 499 kts | 143° |
| 2026-04-18 04:10 | 28.61905 | 72.10948 | 34848 ft | 499 kts | 143° |
| 2026-04-18 04:11 | 28.56723 | 72.16159 | 34840 ft | 495 kts | 143° |
| 2026-04-18 04:11 | 28.51995 | 72.21917 | 34842 ft | 503 kts | 131° |
| 2026-04-18 04:12 | 28.48433 | 72.28760 | 34839 ft | 511 kts | 118° |
| 2026-04-18 04:12 | 28.46225 | 72.36502 | 34840 ft | 518 kts | 104° |
| 2026-04-18 04:13 | 28.44993 | 72.44601 | 34843 ft | 519 kts | 102° |
| 2026-04-18 04:13 | 28.43829 | 72.52696 | 34840 ft | 519 kts | 102° |
| 2026-04-18 04:14 | 28.42624 | 72.60803 | 34831 ft | 519 kts | 102° |
| 2026-04-18 04:14 | 28.41400 | 72.68889 | 34832 ft | 519 kts | 103° |
| 2026-04-18 04:15 | 28.40165 | 72.76986 | 34833 ft | 518 kts | 103° |
| 2026-04-18 04:15 | 28.38932 | 72.85004 | 34834 ft | 518 kts | 103° |
| 2026-04-18 04:16 | 28.37679 | 72.93127 | 34831 ft | 518 kts | 103° |
| 2026-04-18 04:16 | 28.36440 | 73.01126 | 34827 ft | 518 kts | 103° |
| 2026-04-18 04:17 | 28.35186 | 73.09197 | 34828 ft | 518 kts | 103° |
| 2026-04-18 04:17 | 28.33928 | 73.17258 | 34830 ft | 518 kts | 103° |
| 2026-04-18 04:18 | 28.32663 | 73.25329 | 34832 ft | 518 kts | 103° |
| 2026-04-18 04:18 | 28.31395 | 73.33390 | 34829 ft | 518 kts | 103° |
| 2026-04-18 04:19 | 28.30124 | 73.41441 | 34831 ft | 518 kts | 103° |
| 2026-04-18 04:19 | 28.28846 | 73.49498 | 34833 ft | 518 kts | 103° |
| 2026-04-18 04:20 | 28.27564 | 73.57555 | 34833 ft | 518 kts | 103° |
| 2026-04-18 04:20 | 28.26284 | 73.65562 | 34831 ft | 518 kts | 103° |
| 2026-04-18 04:21 | 28.24992 | 73.73614 | 34826 ft | 518 kts | 103° |
| 2026-04-18 04:21 | 28.23694 | 73.81665 | 34828 ft | 518 kts | 103° |
| 2026-04-18 04:22 | 28.22391 | 73.89723 | 34833 ft | 518 kts | 103° |
| 2026-04-18 04:22 | 28.21083 | 73.97774 | 34840 ft | 518 kts | 104° |
| 2026-04-18 04:23 | 28.19871 | 74.05794 | 34829 ft | 520 kts | 100° |
| 2026-04-18 04:23 | 28.19333 | 74.14022 | 34836 ft | 523 kts | 93° |
| 2026-04-18 04:24 | 28.19624 | 74.22286 | 34836 ft | 525 kts | 88° |
| 2026-04-18 04:24 | 28.20233 | 74.30569 | 34837 ft | 525 kts | 87° |
| 2026-04-18 04:25 | 28.20836 | 74.38831 | 34833 ft | 525 kts | 88° |
| 2026-04-18 04:25 | 28.21417 | 74.47095 | 34847 ft | 525 kts | 88° |
| 2026-04-18 04:26 | 28.21984 | 74.55365 | 34852 ft | 525 kts | 88° |
| 2026-04-18 04:26 | 28.22451 | 74.62234 | 34845 ft | 525 kts | 88° |
| 2026-04-18 04:27 | 28.23008 | 74.70499 | 34848 ft | 525 kts | 88° |
| 2026-04-18 04:27 | 28.23558 | 74.78730 | 34860 ft | 525 kts | 88° |
| 2026-04-18 04:28 | 28.24106 | 74.87005 | 34848 ft | 525 kts | 88° |
| 2026-04-18 04:28 | 28.24649 | 74.95281 | 34860 ft | 525 kts | 88° |
| 2026-04-18 04:29 | 28.25186 | 75.03546 | 34862 ft | 525 kts | 88° |
| 2026-04-18 04:29 | 28.25717 | 75.11818 | 34851 ft | 526 kts | 88° |
| 2026-04-18 04:30 | 28.26246 | 75.20108 | 34849 ft | 526 kts | 88° |
| 2026-04-18 04:30 | 28.26772 | 75.28411 | 34863 ft | 526 kts | 88° |
| 2026-04-18 04:31 | 28.27291 | 75.36713 | 34868 ft | 526 kts | 88° |
| 2026-04-18 04:31 | 28.27801 | 75.44949 | 34851 ft | 526 kts | 88° |
| 2026-04-18 04:32 | 28.28309 | 75.53245 | 34860 ft | 526 kts | 88° |
| 2026-04-18 04:32 | 28.28813 | 75.61529 | 34866 ft | 526 kts | 88° |
| 2026-04-18 04:33 | 28.29312 | 75.69826 | 34860 ft | 526 kts | 88° |
| 2026-04-18 04:33 | 28.29805 | 75.78114 | 34859 ft | 526 kts | 88° |
| 2026-04-18 04:34 | 28.30295 | 75.86420 | 34867 ft | 527 kts | 88° |
| 2026-04-18 04:34 | 28.30778 | 75.94723 | 34866 ft | 527 kts | 88° |
| 2026-04-18 04:35 | 28.31258 | 76.03033 | 34865 ft | 527 kts | 88° |
| 2026-04-18 04:35 | 28.31729 | 76.11296 | 34875 ft | 527 kts | 88° |
| 2026-04-18 04:36 | 28.32199 | 76.19624 | 34876 ft | 527 kts | 88° |